Observation data for Amarillo 7 South Southeast on 03/05/2021      Previous  Date  Next       Current Mesonet Observations  Soil Data  Daily Summary Page  Observations in Plain Language
KAM1 050600Z 32016KT 09/M02 A2995 RMK A01 T00901017  RH  047%=      5-min Rain = 0
KAM1 050601Z 32017G22KT 09/M02 A2995 RMK A01 T00901016  RH  047%=      5-min Rain = 0
KAM1 050602Z 32014KT 09/M02 A2996 RMK A01 T00891016  RH  047%=      5-min Rain = 0
KAM1 050603Z 32015KT 09/M02 A2996 RMK A01 T00881017  RH  048%=      5-min Rain = 0
KAM1 050604Z 32015KT 09/M02 A2995 RMK A01 T00881016  RH  048%=      5-min Rain = 0
KAM1 050605Z 32017KT 09/M02 A2995 RMK A01 T00881016  RH  048%=      5-min Rain = 0
KAM1 050606Z 31014KT 09/M02 A2996 RMK A01 T00891016  RH  048%=      5-min Rain = 0
KAM1 050607Z 32016KT 09/M02 A2996 RMK A01 T00881016  RH  048%=      5-min Rain = 0
KAM1 050608Z 32017KT 09/M02 A2996 RMK A01 T00871016  RH  048%=      5-min Rain = 0
KAM1 050609Z 31016KT 09/M02 A2996 RMK A01 T00881016  RH  048%=      5-min Rain = 0
KAM1 050610Z 32016KT 09/M02 A2996 RMK A01 T00881015  RH  048%=      5-min Rain = 0
KAM1 050611Z 32014KT 09/M02 A2996 RMK A01 T00881015  RH  048%=      5-min Rain = 0
KAM1 050612Z 32014KT 09/M02 A2996 RMK A01 T00871016  RH  048%=      5-min Rain = 0
KAM1 050613Z 32014G19KT 09/M02 A2996 RMK A01 T00861016  RH  049%=      5-min Rain = 0
KAM1 050614Z 32016KT 08/M02 A2996 RMK A01 T00841016  RH  049%=      5-min Rain = 0
KAM1 050615Z 32015KT 08/M02 A2996 RMK A01 T00841016  RH  049%=      5-min Rain = 0
KAM1 050616Z 32015KT 08/M02 A2996 RMK A01 T00841016  RH  049%=      5-min Rain = 0
KAM1 050617Z 32013KT 08/M02 A2996 RMK A01 T00841016  RH  049%=      5-min Rain = 0
KAM1 050618Z 32014G19KT 08/M02 A2996 RMK A01 T00841016  RH  050%=      5-min Rain = 0
KAM1 050619Z 32016KT 08/M02 A2996 RMK A01 T00831016  RH  050%=      5-min Rain = 0
KAM1 050620Z 32014KT 08/M02 A2996 RMK A01 T00831015  RH  050%=      5-min Rain = 0
KAM1 050621Z 32014KT 08/M02 A2996 RMK A01 T00831015  RH  050%=      5-min Rain = 0
KAM1 050622Z 32012KT 08/M02 A2996 RMK A01 T00821016  RH  050%=      5-min Rain = 0
KAM1 050623Z 32014KT 08/M02 A2996 RMK A01 T00801016  RH  051%=      5-min Rain = 0
KAM1 050624Z 33013KT 08/M02 A2996 RMK A01 T00801016  RH  051%=      5-min Rain = 0
KAM1 050625Z 32013KT 08/M02 A2996 RMK A01 T00801015  RH  051%=      5-min Rain = 0
KAM1 050626Z 32011KT 08/M02 A2996 RMK A01 T00801015  RH  051%=      5-min Rain = 0
KAM1 050627Z 32013KT 08/M02 A2996 RMK A01 T00791016  RH  051%=      5-min Rain = 0
KAM1 050628Z 32015KT 08/M02 A2996 RMK A01 T00791016  RH  051%=      5-min Rain = 0
KAM1 050629Z 32013KT 08/M02 A2996 RMK A01 T00781016  RH  051%=      5-min Rain = 0
KAM1 050630Z 32013KT 08/M02 A2996 RMK A01 T00791016  RH  051%=      5-min Rain = 0
KAM1 050631Z 32013KT 08/M02 A2996 RMK A01 T00791016  RH  051%=      5-min Rain = 0
KAM1 050632Z 32014KT 08/M02 A2996 RMK A01 T00791015  RH  051%=      5-min Rain = 0
KAM1 050633Z 32013KT 08/M02 A2996 RMK A01 T00781015  RH  052%=      5-min Rain = 0
KAM1 050634Z 32013KT 08/M02 A2996 RMK A01 T00781015  RH  052%=      5-min Rain = 0
KAM1 050635Z 32015KT 08/M02 A2996 RMK A01 T00781015  RH  052%=      5-min Rain = 0
KAM1 050636Z 32013KT 08/M02 A2996 RMK A01 T00781015  RH  052%=      5-min Rain = 0
KAM1 050637Z 32014KT 08/M02 A2996 RMK A01 T00781015  RH  052%=      5-min Rain = 0
KAM1 050638Z 32012KT 08/M02 A2996 RMK A01 T00771015  RH  052%=      5-min Rain = 0
KAM1 050639Z 32012KT 08/M02 A2996 RMK A01 T00761016  RH  052%=      5-min Rain = 0
KAM1 050640Z 32013KT 08/M02 A2996 RMK A01 T00751016  RH  052%=      5-min Rain = 0
KAM1 050641Z 32012KT 08/M02 A2996 RMK A01 T00751016  RH  053%=      5-min Rain = 0
KAM1 050642Z 33012KT 07/M02 A2996 RMK A01 T00741016  RH  053%=      5-min Rain = 0
KAM1 050643Z 32012KT 07/M02 A2996 RMK A01 T00741016  RH  053%=      5-min Rain = 0
KAM1 050644Z 32011KT 07/M02 A2996 RMK A01 T00741016  RH  053%=      5-min Rain = 0
KAM1 050645Z 33012KT 07/M02 A2996 RMK A01 T00741016  RH  053%=      5-min Rain = 0
KAM1 050646Z 32012KT 07/M02 A2996 RMK A01 T00731016  RH  053%=      5-min Rain = 0
KAM1 050647Z 32011KT 07/M02 A2996 RMK A01 T00731015  RH  053%=      5-min Rain = 0
KAM1 050648Z 32011KT 07/M02 A2996 RMK A01 T00731016  RH  053%=      5-min Rain = 0
KAM1 050649Z 32012KT 07/M02 A2996 RMK A01 T00721016  RH  054%=      5-min Rain = 0
KAM1 050650Z 32012KT 07/M02 A2996 RMK A01 T00721015  RH  054%=      5-min Rain = 0
KAM1 050651Z 32011KT 07/M02 A2996 RMK A01 T00721015  RH  054%=      5-min Rain = 0
KAM1 050652Z 32012KT 07/M02 A2996 RMK A01 T00721015  RH  054%=      5-min Rain = 0
KAM1 050653Z 32013KT 07/M02 A2996 RMK A01 T00721015  RH  054%=      5-min Rain = 0
KAM1 050654Z 32013KT 07/M02 A2996 RMK A01 T00721015  RH  054%=      5-min Rain = 0
KAM1 050655Z 32013KT 07/M02 A2996 RMK A01 T00721015  RH  054%=      5-min Rain = 0
KAM1 050656Z 32015KT 07/M01 A2997 RMK A01 T00721014  RH  054%=      5-min Rain = 0
KAM1 050657Z 32014KT 07/M01 A2997 RMK A01 T00721014  RH  054%=      5-min Rain = 0
KAM1 050658Z 32014KT 07/M01 A2997 RMK A01 T00731014  RH  054%=      5-min Rain = 0
KAM1 050659Z 33014KT 07/M01 A2997 RMK A01 T00731014  RH  054%=      5-min Rain = 0
KAM1 050700Z 33011KT 07/M01 A2997 RMK A01 T00731014  RH  054%=      5-min Rain = 0
KAM1 050701Z 32013KT 07/M01 A2997 RMK A01 T00711014  RH  054%=      5-min Rain = 0
KAM1 050702Z 33013KT 07/M01 A2997 RMK A01 T00701014  RH  055%=      5-min Rain = 0
KAM1 050703Z 32013KT 07/M01 A2997 RMK A01 T00701014  RH  055%=      5-min Rain = 0
KAM1 050704Z 32013KT 07/M01 A2997 RMK A01 T00701014  RH  055%=      5-min Rain = 0
KAM1 050705Z 32015KT 07/M01 A2997 RMK A01 T00701013  RH  055%=      5-min Rain = 0
KAM1 050706Z 32012KT 07/M01 A2997 RMK A01 T00711013  RH  055%=      5-min Rain = 0
KAM1 050707Z 32015KT 07/M01 A2997 RMK A01 T00711013  RH  055%=      5-min Rain = 0
KAM1 050708Z 32015KT 07/M01 A2996 RMK A01 T00711013  RH  055%=      5-min Rain = 0
KAM1 050709Z 32014KT 07/M01 A2997 RMK A01 T00711012  RH  055%=      5-min Rain = 0
KAM1 050710Z 31014KT 07/M01 A2997 RMK A01 T00711012  RH  055%=      5-min Rain = 0
KAM1 050711Z 32013KT 07/M01 A2997 RMK A01 T00711012  RH  056%=      5-min Rain = 0
KAM1 050712Z 31014KT 07/M01 A2997 RMK A01 T00701012  RH  056%=      5-min Rain = 0
KAM1 050713Z 32015KT 07/M01 A2996 RMK A01 T00701012  RH  056%=      5-min Rain = 0
KAM1 050714Z 32014KT 07/M01 A2996 RMK A01 T00701012  RH  056%=      5-min Rain = 0
KAM1 050715Z 32013KT 07/M01 A2996 RMK A01 T00711011  RH  056%=      5-min Rain = 0
KAM1 050716Z 32013KT 07/M01 A2996 RMK A01 T00701012  RH  056%=      5-min Rain = 0
KAM1 050717Z 32013KT 07/M01 A2996 RMK A01 T00701011  RH  056%=      5-min Rain = 0
KAM1 050718Z 32013KT 07/M01 A2996 RMK A01 T00701012  RH  056%=      5-min Rain = 0
KAM1 050719Z 32012KT 07/M01 A2996 RMK A01 T00691012  RH  056%=      5-min Rain = 0
KAM1 050720Z 32013KT 07/M01 A2996 RMK A01 T00691012  RH  057%=      5-min Rain = 0
KAM1 050721Z 32012KT 07/M01 A2996 RMK A01 T00681011  RH  057%=      5-min Rain = 0
KAM1 050722Z 32014KT 07/M01 A2996 RMK A01 T00681011  RH  057%=      5-min Rain = 0
KAM1 050723Z 32014KT 07/M01 A2996 RMK A01 T00681011  RH  057%=      5-min Rain = 0
KAM1 050724Z 31013KT 07/M01 A2996 RMK A01 T00691011  RH  057%=      5-min Rain = 0
KAM1 050725Z 31012KT 07/M01 A2996 RMK A01 T00681011  RH  057%=      5-min Rain = 0
KAM1 050726Z 32013KT 07/M01 A2996 RMK A01 T00681011  RH  057%=      5-min Rain = 0
KAM1 050727Z 32013KT 07/M01 A2996 RMK A01 T00671011  RH  057%=      5-min Rain = 0
KAM1 050728Z 31013KT 07/M01 A2996 RMK A01 T00671011  RH  057%=      5-min Rain = 0
KAM1 050729Z 32013KT 07/M01 A2996 RMK A01 T00671011  RH  058%=      5-min Rain = 0
KAM1 050730Z 31014KT 07/M01 A2997 RMK A01 T00671011  RH  058%=      5-min Rain = 0
KAM1 050731Z 32014KT 07/M01 A2997 RMK A01 T00661011  RH  058%=      5-min Rain = 0
KAM1 050732Z 31013KT 07/M01 A2997 RMK A01 T00661011  RH  058%=      5-min Rain = 0
KAM1 050733Z 32015KT 07/M01 A2997 RMK A01 T00661011  RH  058%=      5-min Rain = 0
KAM1 050734Z 32015KT 07/M01 A2997 RMK A01 T00661010  RH  058%=      5-min Rain = 0
KAM1 050735Z 32016KT 07/M01 A2997 RMK A01 T00671009  RH  058%=      5-min Rain = 0
KAM1 050736Z 32016G21KT 07/M01 A2997 RMK A01 T00671009  RH  058%=      5-min Rain = 0
KAM1 050737Z 32015KT 07/M01 A2997 RMK A01 T00681009  RH  058%=      5-min Rain = 0
KAM1 050738Z 32014KT 07/M01 A2997 RMK A01 T00681009  RH  058%=      5-min Rain = 0
KAM1 050739Z 32014KT 07/M01 A2997 RMK A01 T00671009  RH  058%=      5-min Rain = 0
KAM1 050740Z 32015KT 07/M01 A2997 RMK A01 T00661009  RH  059%=      5-min Rain = 0
KAM1 050741Z 32014KT 07/M01 A2997 RMK A01 T00661009  RH  059%=      5-min Rain = 0
KAM1 050742Z 32014KT 07/M01 A2997 RMK A01 T00661009  RH  059%=      5-min Rain = 0
KAM1 050743Z 32013G18KT 07/M01 A2997 RMK A01 T00661008  RH  059%=      5-min Rain = 0
KAM1 050744Z 32014KT 07/M01 A2997 RMK A01 T00661008  RH  059%=      5-min Rain = 0
KAM1 050745Z 32014KT 07/M01 A2997 RMK A01 T00651008  RH  059%=      5-min Rain = 0
KAM1 050746Z 31016KT 07/M01 A2997 RMK A01 T00651008  RH  059%=      5-min Rain = 0
KAM1 050747Z 32015KT 07/M01 A2997 RMK A01 T00661007  RH  060%=      5-min Rain = 0
KAM1 050748Z 32014KT 07/M01 A2997 RMK A01 T00661007  RH  059%=      5-min Rain = 0
KAM1 050749Z 32016KT 07/M01 A2997 RMK A01 T00671007  RH  059%=      5-min Rain = 0
KAM1 050750Z 32016KT 07/M01 A2997 RMK A01 T00661007  RH  060%=      5-min Rain = 0
KAM1 050751Z 32015KT 07/M01 A2997 RMK A01 T00661007  RH  060%=      5-min Rain = 0
KAM1 050752Z 32013KT 07/M01 A2997 RMK A01 T00661006  RH  060%=      5-min Rain = 0
KAM1 050753Z 32013KT 07/M01 A2997 RMK A01 T00661006  RH  060%=      5-min Rain = 0
KAM1 050754Z 32015KT 07/M01 A2997 RMK A01 T00661006  RH  060%=      5-min Rain = 0
KAM1 050755Z 32015G20KT 07/M01 A2997 RMK A01 T00661006  RH  060%=      5-min Rain = 0
KAM1 050756Z 32015KT 07/M01 A2997 RMK A01 T00661006  RH  060%=      5-min Rain = 0
KAM1 050757Z 32013KT 07/M01 A2997 RMK A01 T00661006  RH  060%=      5-min Rain = 0
KAM1 050758Z 32015KT 07/M01 A2997 RMK A01 T00651006  RH  061%=      5-min Rain = 0
KAM1 050759Z 32015KT 07/M01 A2997 RMK A01 T00651005  RH  061%=      5-min Rain = 0
KAM1 050800Z 32015G21KT 06/M01 A2997 RMK A01 T00641005  RH  061%=      5-min Rain = 0
KAM1 050801Z 32015KT 07/M00 A2997 RMK A01 T00651004  RH  061%=      5-min Rain = 0
KAM1 050802Z 32015KT 07/M00 A2997 RMK A01 T00651004  RH  061%=      5-min Rain = 0
KAM1 050803Z 31015KT 07/M00 A2997 RMK A01 T00651004  RH  061%=      5-min Rain = 0
KAM1 050804Z 31014KT 07/M00 A2997 RMK A01 T00651004  RH  061%=      5-min Rain = 0
KAM1 050805Z 31013KT 07/M00 A2997 RMK A01 T00651004  RH  061%=      5-min Rain = 0
KAM1 050806Z 31012KT 06/M01 A2997 RMK A01 T00641005  RH  061%=      5-min Rain = 0
KAM1 050807Z 31013KT 06/M01 A2997 RMK A01 T00621006  RH  062%=      5-min Rain = 0
KAM1 050808Z 31014KT 06/M01 A2997 RMK A01 T00611006  RH  062%=      5-min Rain = 0
KAM1 050809Z 31013KT 06/M01 A2997 RMK A01 T00601006  RH  063%=      5-min Rain = 0
KAM1 050810Z 31015KT 06/M01 A2997 RMK A01 T00601006  RH  063%=      5-min Rain = 0
KAM1 050811Z 31014KT 06/M01 A2997 RMK A01 T00601005  RH  063%=      5-min Rain = 0
KAM1 050812Z 31013KT 06/M01 A2997 RMK A01 T00601005  RH  063%=      5-min Rain = 0
KAM1 050813Z 31014KT 06/M01 A2997 RMK A01 T00601006  RH  063%=      5-min Rain = 0
KAM1 050814Z 31014KT 06/M01 A2997 RMK A01 T00601006  RH  063%=      5-min Rain = 0
KAM1 050815Z 31014KT 06/M01 A2997 RMK A01 T00601005  RH  063%=      5-min Rain = 0
KAM1 050816Z 31014KT 06/M01 A2997 RMK A01 T00601005  RH  063%=      5-min Rain = 0
KAM1 050817Z 31015KT 06/M01 A2997 RMK A01 T00601005  RH  063%=      5-min Rain = 0
KAM1 050818Z 31013KT 06/M01 A2997 RMK A01 T00591005  RH  063%=      5-min Rain = 0
KAM1 050819Z 30013KT 06/M01 A2997 RMK A01 T00581005  RH  063%=      5-min Rain = 0
KAM1 050820Z 30013KT 06/M01 A2997 RMK A01 T00581006  RH  064%=      5-min Rain = 0
KAM1 050821Z 30014KT 06/M01 A2997 RMK A01 T00571005  RH  064%=      5-min Rain = 0
KAM1 050822Z 31014KT 06/M01 A2997 RMK A01 T00571005  RH  064%=      5-min Rain = 0
KAM1 050823Z 30015KT 06/M01 A2997 RMK A01 T00571005  RH  064%=      5-min Rain = 0
KAM1 050824Z 30015KT 06/M01 A2997 RMK A01 T00581005  RH  064%=      5-min Rain = 0
KAM1 050825Z 30016KT 06/M00 A2997 RMK A01 T00581004  RH  064%=      5-min Rain = 0
KAM1 050826Z 30015KT 06/M00 A2997 RMK A01 T00581004  RH  064%=      5-min Rain = 0
KAM1 050827Z 30016KT 06/M00 A2997 RMK A01 T00591003  RH  064%=      5-min Rain = 0
KAM1 050828Z 30015KT 06/M00 A2997 RMK A01 T00591003  RH  064%=      5-min Rain = 0
KAM1 050829Z 31015KT 06/M00 A2997 RMK A01 T00591003  RH  064%=      5-min Rain = 0
KAM1 050830Z 31017KT 06/M00 A2997 RMK A01 T00591003  RH  064%=      5-min Rain = 0
KAM1 050831Z 30014KT 06/M00 A2997 RMK A01 T00591002  RH  065%=      5-min Rain = 0
KAM1 050832Z 30015KT 06/M00 A2997 RMK A01 T00591003  RH  065%=      5-min Rain = 0
KAM1 050833Z 30016KT 06/M00 A2997 RMK A01 T00581003  RH  065%=      5-min Rain = 0
KAM1 050834Z 31016KT 06/M00 A2997 RMK A01 T00591001  RH  065%=      5-min Rain = 0
KAM1 050835Z 30016KT 06/M00 A2997 RMK A01 T00591001  RH  065%=      5-min Rain = 0
KAM1 050836Z 31015KT 06/M00 A2997 RMK A01 T00591001  RH  065%=      5-min Rain = 0
KAM1 050837Z 30015KT 06/M00 A2997 RMK A01 T00601001  RH  065%=      5-min Rain = 0
KAM1 050838Z 30015KT 06/M00 A2997 RMK A01 T00601001  RH  065%=      5-min Rain = 0
KAM1 050839Z 30015KT 06/M00 A2997 RMK A01 T00591001  RH  065%=      5-min Rain = 0
KAM1 050840Z 31013KT 06/00 A2997 RMK A01 T005900-0  RH  066%=      5-min Rain = 0
KAM1 050841Z 31012KT 06/M00 A2997 RMK A01 T00581001  RH  066%=      5-min Rain = 0
KAM1 050842Z 31012KT 06/M00 A2997 RMK A01 T00581001  RH  066%=      5-min Rain = 0
KAM1 050843Z 31011KT 06/M00 A2997 RMK A01 T00571001  RH  066%=      5-min Rain = 0
KAM1 050844Z 31013KT 06/M00 A2997 RMK A01 T00561001  RH  067%=      5-min Rain = 0
KAM1 050845Z 31013KT 06/00 A2997 RMK A01 T00560001  RH  067%=      5-min Rain = 0
KAM1 050846Z 31012KT 06/00 A2997 RMK A01 T00570002  RH  068%=      5-min Rain = 0
KAM1 050847Z 31015G20KT 06/00 A2997 RMK A01 T00570002  RH  067%=      5-min Rain = 0
KAM1 050848Z 32014KT 06/00 A2997 RMK A01 T00580003  RH  068%=      5-min Rain = 0
KAM1 050849Z 32013KT 06/00 A2997 RMK A01 T00590003  RH  068%=      5-min Rain = 0
KAM1 050850Z 32014KT 06/00 A2997 RMK A01 T00590003  RH  067%=      5-min Rain = 0
KAM1 050851Z 32014KT 06/00 A2997 RMK A01 T00590004  RH  068%=      5-min Rain = 0
KAM1 050852Z 31015KT 06/00 A2997 RMK A01 T00590004  RH  068%=      5-min Rain = 0
KAM1 050853Z 32013KT 06/01 A2997 RMK A01 T00590005  RH  068%=      5-min Rain = 0
KAM1 050854Z 32012KT 06/01 A2997 RMK A01 T00600005  RH  068%=      5-min Rain = 0
KAM1 050855Z 31013KT 06/00 A2997 RMK A01 T00590004  RH  068%=      5-min Rain = 0
KAM1 050856Z 31012KT 06/00 A2997 RMK A01 T00590004  RH  068%=      5-min Rain = 0
KAM1 050857Z 31011G16KT 06/01 A2997 RMK A01 T00590005  RH  068%=      5-min Rain = 0
KAM1 050858Z 32013KT 06/00 A2997 RMK A01 T00580004  RH  068%=      5-min Rain = 0
KAM1 050859Z 31015KT 06/00 A2997 RMK A01 T00570004  RH  069%=      5-min Rain = 0
KAM1 050900Z 31013KT 06/01 A2997 RMK A01 T00580005  RH  069%=      5-min Rain = 0
KAM1 050901Z 31012KT 06/00 A2997 RMK A01 T00580004  RH  068%=      5-min Rain = 0
KAM1 050902Z 31013KT 06/00 A2997 RMK A01 T00570004  RH  069%=      5-min Rain = 0
KAM1 050903Z 30012KT 06/00 A2997 RMK A01 T00570004  RH  069%=      5-min Rain = 0
KAM1 050904Z 31012KT 06/00 A2997 RMK A01 T00570004  RH  069%=      5-min Rain = 0
KAM1 050905Z 31012KT 06/00 A2997 RMK A01 T00570004  RH  069%=      5-min Rain = 0
KAM1 050906Z 31011KT 06/00 A2997 RMK A01 T00570004  RH  069%=      5-min Rain = 0
KAM1 050907Z 31013KT 06/00 A2997 RMK A01 T00570004  RH  069%=      5-min Rain = 0
KAM1 050908Z 31013KT 06/00 A2997 RMK A01 T00570004  RH  069%=      5-min Rain = 0
KAM1 050909Z 31011KT 06/00 A2997 RMK A01 T00570004  RH  069%=      5-min Rain = 0
KAM1 050910Z 31012KT 06/00 A2997 RMK A01 T00570004  RH  069%=      5-min Rain = 0
KAM1 050911Z 31012KT 06/00 A2997 RMK A01 T00560004  RH  069%=      5-min Rain = 0
KAM1 050912Z 31013KT 06/00 A2997 RMK A01 T00560004  RH  069%=      5-min Rain = 0
KAM1 050913Z 31011KT 06/01 A2997 RMK A01 T00570005  RH  069%=      5-min Rain = 0
KAM1 050914Z 31013KT 06/00 A2997 RMK A01 T00560004  RH  069%=      5-min Rain = 0
KAM1 050915Z 31013KT 06/00 A2997 RMK A01 T00560004  RH  069%=      5-min Rain = 0
KAM1 050916Z 31013KT 06/01 A2997 RMK A01 T00570005  RH  069%=      5-min Rain = 0
KAM1 050917Z 31012KT 06/01 A2997 RMK A01 T00570005  RH  069%=      5-min Rain = 0
KAM1 050918Z 31013KT 06/01 A2997 RMK A01 T00570005  RH  069%=      5-min Rain = 0
KAM1 050919Z 31014KT 06/01 A2997 RMK A01 T00570005  RH  069%=      5-min Rain = 0
KAM1 050920Z 31014KT 06/01 A2997 RMK A01 T00570006  RH  069%=      5-min Rain = 0
KAM1 050921Z 31013KT 06/01 A2997 RMK A01 T00580006  RH  069%=      5-min Rain = 0
KAM1 050922Z 31012KT 06/01 A2997 RMK A01 T00580006  RH  069%=      5-min Rain = 0
KAM1 050923Z 31014KT 06/01 A2997 RMK A01 T00570005  RH  069%=      5-min Rain = 0
KAM1 050924Z 31014G19KT 06/01 A2996 RMK A01 T00570006  RH  070%=      5-min Rain = 0
KAM1 050925Z 31016KT 06/01 A2996 RMK A01 T00580007  RH  070%=      5-min Rain = 0
KAM1 050926Z 31016KT 06/01 A2996 RMK A01 T00590008  RH  070%=      5-min Rain = 0
KAM1 050927Z 31016KT 06/01 A2997 RMK A01 T00600008  RH  070%=      5-min Rain = 0
KAM1 050928Z 32014KT 06/01 A2997 RMK A01 T00600008  RH  070%=      5-min Rain = 0
KAM1 050929Z 32013KT 06/01 A2997 RMK A01 T00590008  RH  070%=      5-min Rain = 0
KAM1 050930Z 31015KT 06/01 A2997 RMK A01 T00580008  RH  070%=      5-min Rain = 0
KAM1 050931Z 31018KT 06/01 A2997 RMK A01 T00590010  RH  071%=      5-min Rain = 0
KAM1 050932Z 31015KT 06/01 A2997 RMK A01 T00610011  RH  071%=      5-min Rain = 0
KAM1 050933Z 31015KT 06/01 A2997 RMK A01 T00620011  RH  070%=      5-min Rain = 0
KAM1 050934Z 31019KT 06/01 A2997 RMK A01 T00620011  RH  070%=      5-min Rain = 0
KAM1 050935Z 31017KT 06/01 A2997 RMK A01 T00630013  RH  070%=      5-min Rain = 0
KAM1 050936Z 31019KT 06/01 A2997 RMK A01 T00640013  RH  070%=      5-min Rain = 0
KAM1 050937Z 31014G20KT 07/01 A2997 RMK A01 T00650013  RH  069%=      5-min Rain = 0
KAM1 050938Z 31017G24KT 07/01 A2997 RMK A01 T00650013  RH  069%=      5-min Rain = 0
KAM1 050939Z 31019KT 07/01 A2997 RMK A01 T00660014  RH  069%=      5-min Rain = 0
KAM1 050940Z 32016KT 07/01 A2997 RMK A01 T00670014  RH  069%=      5-min Rain = 0
KAM1 050941Z 32013KT 07/01 A2998 RMK A01 T00670014  RH  069%=      5-min Rain = 0
KAM1 050942Z 32015KT 07/01 A2998 RMK A01 T00680014  RH  069%=      5-min Rain = 0
KAM1 050943Z 32014KT 07/01 A2998 RMK A01 T00680014  RH  068%=      5-min Rain = 0
KAM1 050944Z 31017KT 07/01 A2997 RMK A01 T00680014  RH  068%=      5-min Rain = 0
KAM1 050945Z 32018KT 07/01 A2997 RMK A01 T00680014  RH  068%=      5-min Rain = 0
KAM1 050946Z 31015KT 07/01 A2997 RMK A01 T00690014  RH  068%=      5-min Rain = 0
KAM1 050947Z 32016KT 07/01 A2997 RMK A01 T00690014  RH  068%=      5-min Rain = 0
KAM1 050948Z 32014KT 07/01 A2997 RMK A01 T00690014  RH  068%=      5-min Rain = 0
KAM1 050949Z 32014KT 07/01 A2997 RMK A01 T00690014  RH  068%=      5-min Rain = 0
KAM1 050950Z 32017KT 07/01 A2997 RMK A01 T00680014  RH  068%=      5-min Rain = 0
KAM1 050951Z 32016KT 07/02 A2997 RMK A01 T00690015  RH  068%=      5-min Rain = 0
KAM1 050952Z 32015KT 07/02 A2997 RMK A01 T00690015  RH  068%=      5-min Rain = 0
KAM1 050953Z 31014KT 07/02 A2997 RMK A01 T00690015  RH  068%=      5-min Rain = 0
KAM1 050954Z 32017KT 07/02 A2997 RMK A01 T00690015  RH  068%=      5-min Rain = 0
KAM1 050955Z 32019KT 07/02 A2997 RMK A01 T00690015  RH  069%=      5-min Rain = 0
KAM1 050956Z 33016KT 07/02 A2997 RMK A01 T00700016  RH  069%=      5-min Rain = 0
KAM1 050957Z 32016KT 07/02 A2997 RMK A01 T00700016  RH  068%=      5-min Rain = 0
KAM1 050958Z 32017KT 07/02 A2997 RMK A01 T00700016  RH  069%=      5-min Rain = 0
KAM1 050959Z 32014KT 07/02 A2997 RMK A01 T00700016  RH  069%=      5-min Rain = 0
KAM1 051000Z 32013KT 07/02 A2997 RMK A01 T00700016  RH  069%=      5-min Rain = 0
KAM1 051001Z 33014KT 07/02 A2997 RMK A01 T00690016  RH  069%=      5-min Rain = 0
KAM1 051002Z 32015KT 07/02 A2997 RMK A01 T00690016  RH  069%=      5-min Rain = 0
KAM1 051003Z 32015KT 07/02 A2997 RMK A01 T00700016  RH  069%=      5-min Rain = 0
KAM1 051004Z 32014KT 07/02 A2997 RMK A01 T00700017  RH  069%=      5-min Rain = 0
KAM1 051005Z 31015KT 07/02 A2997 RMK A01 T00700016  RH  069%=      5-min Rain = 0
KAM1 051006Z 32015KT 07/02 A2997 RMK A01 T00700017  RH  069%=      5-min Rain = 0
KAM1 051007Z 31016KT 07/02 A2997 RMK A01 T00700018  RH  069%=      5-min Rain = 0
KAM1 051008Z 32016KT 07/02 A2997 RMK A01 T00710019  RH  069%=      5-min Rain = 0
KAM1 051009Z 32012KT 07/02 A2998 RMK A01 T00710019  RH  069%=      5-min Rain = 0
KAM1 051010Z 32012KT 07/02 A2998 RMK A01 T00710019  RH  069%=      5-min Rain = 0
KAM1 051011Z 32011KT 07/02 A2998 RMK A01 T00710019  RH  070%=      5-min Rain = 0
KAM1 051012Z 32011KT 07/02 A2998 RMK A01 T00710019  RH  070%=      5-min Rain = 0
KAM1 051013Z 32015KT 07/02 A2998 RMK A01 T00710020  RH  070%=      5-min Rain = 0
KAM1 051014Z 32015KT 07/02 A2998 RMK A01 T00710021  RH  071%=      5-min Rain = 0
KAM1 051015Z 32015KT 07/02 A2998 RMK A01 T00720022  RH  071%=      5-min Rain = 0
KAM1 051016Z 32015KT 07/02 A2998 RMK A01 T00720023  RH  071%=      5-min Rain = 0
KAM1 051017Z 32013KT 07/02 A2998 RMK A01 T00720023  RH  071%=      5-min Rain = 0
KAM1 051018Z 32015KT 07/02 A2997 RMK A01 T00730023  RH  071%=      5-min Rain = 0
KAM1 051019Z 32015KT 07/02 A2997 RMK A01 T00730024  RH  071%=      5-min Rain = 0
KAM1 051020Z 32016KT 07/03 A2997 RMK A01 T00730025  RH  071%=      5-min Rain = 0
KAM1 051021Z 32016KT 07/03 A2997 RMK A01 T00730025  RH  071%=      5-min Rain = 0
KAM1 051022Z 32014KT 07/03 A2997 RMK A01 T00740025  RH  071%=      5-min Rain = 0
KAM1 051023Z 32014KT 07/03 A2997 RMK A01 T00740025  RH  071%=      5-min Rain = 0
KAM1 051024Z 32015KT 07/03 A2997 RMK A01 T00740026  RH  072%=      5-min Rain = 0
KAM1 051025Z 32019KT 07/03 A2997 RMK A01 T00740027  RH  072%=      5-min Rain = 0
KAM1 051026Z 32016KT 07/03 A2997 RMK A01 T00740028  RH  072%=      5-min Rain = 0
KAM1 051027Z 32013KT 08/03 A2997 RMK A01 T00750029  RH  072%=      5-min Rain = 0
KAM1 051028Z 32015KT 08/03 A2997 RMK A01 T00750029  RH  072%=      5-min Rain = 0
KAM1 051029Z 32017KT 08/03 A2997 RMK A01 T00750029  RH  073%=      5-min Rain = 0
KAM1 051030Z 32017KT 08/03 A2997 RMK A01 T00760031  RH  073%=      5-min Rain = 0
KAM1 051031Z 32018KT 08/03 A2997 RMK A01 T00760031  RH  073%=      5-min Rain = 0
KAM1 051032Z 32019KT 08/03 A2997 RMK A01 T00760033  RH  074%=      5-min Rain = 0
KAM1 051033Z 33017KT 08/03 A2997 RMK A01 T00770033  RH  074%=      5-min Rain = 0
KAM1 051034Z 33016G21KT 08/03 A2997 RMK A01 T00760033  RH  074%=      5-min Rain = 0
KAM1 051035Z 32019KT 08/03 A2997 RMK A01 T00760034  RH  074%=      5-min Rain = 0
KAM1 051036Z 32021KT 08/04 A2997 RMK A01 T00770035  RH  075%=      5-min Rain = 0
KAM1 051037Z 32018KT 08/04 A2997 RMK A01 T00770035  RH  075%=      5-min Rain = 0
KAM1 051038Z 32017G22KT 08/04 A2997 RMK A01 T00770036  RH  075%=      5-min Rain = 0
KAM1 051039Z 32020KT 08/04 A2997 RMK A01 T00770036  RH  075%=      5-min Rain = 0
KAM1 051040Z 33017G22KT 08/04 A2997 RMK A01 T00770037  RH  076%=      5-min Rain = 0
KAM1 051041Z 32017G22KT 08/04 A2997 RMK A01 T00780038  RH  076%=      5-min Rain = 0
KAM1 051042Z 32018G24KT 08/04 A2997 RMK A01 T00780039  RH  076%=      5-min Rain = 0
KAM1 051043Z 33017KT 08/04 A2997 RMK A01 T00780039  RH  076%=      5-min Rain = 0
KAM1 051044Z 32016KT 08/04 A2997 RMK A01 T00780040  RH  077%=      5-min Rain = 0
KAM1 051045Z 33016G21KT 08/04 A2997 RMK A01 T00780041  RH  077%=      5-min Rain = 0
KAM1 051046Z 33017KT 08/04 A2997 RMK A01 T00780041  RH  077%=      5-min Rain = 0
KAM1 051047Z 33016KT 08/04 A2997 RMK A01 T00780042  RH  078%=      5-min Rain = 0
KAM1 051048Z 33016KT 08/04 A2997 RMK A01 T00780042  RH  078%=      5-min Rain = 0
KAM1 051049Z 33016G22KT 08/04 A2998 RMK A01 T00780042  RH  078%=      5-min Rain = 0
KAM1 051050Z 33019KT 08/04 A2997 RMK A01 T00790043  RH  078%=      5-min Rain = 0
KAM1 051051Z 33018KT 08/04 A2997 RMK A01 T00790043  RH  078%=      5-min Rain = 0
KAM1 051052Z 33015KT 08/04 A2998 RMK A01 T00790044  RH  078%=      5-min Rain = 0
KAM1 051053Z 33018G23KT 08/04 A2997 RMK A01 T00790044  RH  078%=      5-min Rain = 0
KAM1 051054Z 33015KT 08/04 A2998 RMK A01 T00790044  RH  078%=      5-min Rain = 0
KAM1 051055Z 33018KT 08/05 A2998 RMK A01 T00790045  RH  079%=      5-min Rain = 0
KAM1 051056Z 33013KT 08/05 A2998 RMK A01 T00790045  RH  079%=      5-min Rain = 0
KAM1 051057Z 33014KT 08/05 A2998 RMK A01 T00790045  RH  079%=      5-min Rain = 0
KAM1 051058Z 33018KT 08/05 A2998 RMK A01 T00790045  RH  079%=      5-min Rain = 0
KAM1 051059Z 33020KT 08/05 A2998 RMK A01 T00790045  RH  079%=      5-min Rain = 0
KAM1 051100Z 33018KT 08/05 A2998 RMK A01 T00800046  RH  079%=      5-min Rain = 0
KAM1 051101Z 33017G23KT 08/05 A2998 RMK A01 T00800046  RH  079%=      5-min Rain = 0
KAM1 051102Z 33018KT 08/05 A2998 RMK A01 T00800046  RH  079%=      5-min Rain = 0
KAM1 051103Z 33021KT 08/05 A2998 RMK A01 T00800047  RH  079%=      5-min Rain = 0
KAM1 051104Z 33017G22KT 08/05 A2998 RMK A01 T00800047  RH  079%=      5-min Rain = 0
KAM1 051105Z 34019G24KT 08/05 A2998 RMK A01 T00810047  RH  079%=      5-min Rain = 0
KAM1 051106Z 33018G23KT 08/05 A2999 RMK A01 T00810047  RH  079%=      5-min Rain = 0
KAM1 051107Z 34021KT 08/05 A2999 RMK A01 T00810048  RH  079%=      5-min Rain = 0
KAM1 051108Z 33019KT 08/05 A2999 RMK A01 T00810048  RH  079%=      5-min Rain = 0
KAM1 051109Z 33017KT 08/05 A2999 RMK A01 T00810048  RH  080%=      5-min Rain = 0
KAM1 051110Z 33016KT 08/05 A2999 RMK A01 T00810048  RH  080%=      5-min Rain = 0
KAM1 051111Z 33018G23KT 08/05 A2999 RMK A01 T00810048  RH  080%=      5-min Rain = 0
KAM1 051112Z 33017G22KT 08/05 A2999 RMK A01 T00810048  RH  080%=      5-min Rain = 0
KAM1 051113Z 33018KT 08/05 A2999 RMK A01 T00810048  RH  080%=      5-min Rain = 0
KAM1 051114Z 33020G27KT 08/05 A2999 RMK A01 T00820048  RH  080%=      5-min Rain = 0
KAM1 051115Z 33022KT 08/05 A2999 RMK A01 T00810049  RH  080%=      5-min Rain = 0
KAM1 051116Z 33017G22KT 08/05 A2999 RMK A01 T00820049  RH  080%=      5-min Rain = 0
KAM1 051117Z 33019KT 08/05 A2999 RMK A01 T00820049  RH  080%=      5-min Rain = 0
KAM1 051118Z 34020G26KT 08/05 A2999 RMK A01 T00820049  RH  080%=      5-min Rain = 0
KAM1 051119Z 34018G24KT 08/05 A30 RMK A01 T00820049  RH  080%=      5-min Rain = 0
KAM1 051120Z 35017KT 08/05 A30 RMK A01 T00820049  RH  080%=      5-min Rain = 0
KAM1 051121Z 34019KT 08/05 A30 RMK A01 T00820049  RH  080%=      5-min Rain = 0
KAM1 051122Z 34019G24KT 08/05 A30 RMK A01 T00820049  RH  080%=      5-min Rain = 0
KAM1 051123Z 34019KT 08/05 A30 RMK A01 T00820049  RH  080%=      5-min Rain = 0
KAM1 051124Z 35023KT 08/05 A30 RMK A01 T00810049  RH  080%=      5-min Rain = 0
KAM1 051125Z 34022G28KT 08/05 A30 RMK A01 T00810049  RH  080%=      5-min Rain = 0
KAM1 051126Z 34019KT 08/05 A30 RMK A01 T00810049  RH  080%=      5-min Rain = 0
KAM1 051127Z 34018KT 08/05 A30 RMK A01 T00800049  RH  080%=      5-min Rain = 0
KAM1 051128Z 35018G27KT 08/05 A30 RMK A01 T00810049  RH  081%=      5-min Rain = 0
KAM1 051129Z 34019KT 08/05 A30 RMK A01 T00800049  RH  081%=      5-min Rain = 0
KAM1 051130Z 35020KT 08/05 A30 RMK A01 T00800049  RH  081%=      5-min Rain = 0
KAM1 051131Z 34020KT 08/05 A30 RMK A01 T00800049  RH  081%=      5-min Rain = 0
KAM1 051132Z 35023G28KT 08/05 A30 RMK A01 T00790049  RH  081%=      5-min Rain = 0
KAM1 051133Z 35024G30KT 08/05 A30 RMK A01 T00790049  RH  081%=      5-min Rain = 0
KAM1 051134Z 35024KT 08/05 A30 RMK A01 T00790049  RH  081%=      5-min Rain = 0
KAM1 051135Z 34021G28KT 08/05 A30 RMK A01 T00790049  RH  082%=      5-min Rain = 0
KAM1 051136Z 35023G28KT 08/05 A3001 RMK A01 T00780049  RH  082%=      5-min Rain = 0
KAM1 051137Z 35024KT 08/05 A30 RMK A01 T00780049  RH  082%=      5-min Rain = 0
KAM1 051138Z 35021G26KT 08/05 A3001 RMK A01 T00780050  RH  082%=      5-min Rain = 0
KAM1 051139Z 35019KT 08/05 A3001 RMK A01 T00780050  RH  082%=      5-min Rain = 0
KAM1 051140Z 35020KT 08/05 A3001 RMK A01 T00780050  RH  083%=      5-min Rain = 0
KAM1 051141Z 34022KT 08/05 A30 RMK A01 T00780050  RH  083%=      5-min Rain = 0
KAM1 051142Z 35021G26KT 08/05 A3001 RMK A01 T00780050  RH  083%=      5-min Rain = 0
KAM1 051143Z 35023G29KT 08/05 A3001 RMK A01 T00780051  RH  083%=      5-min Rain = 0
KAM1 051144Z 34021KT 08/05 A3001 RMK A01 T00780050  RH  083%=      5-min Rain = 0
KAM1 051145Z 35017KT 08/05 A3001 RMK A01 T00780050  RH  083%=      5-min Rain = 0
KAM1 051146Z 34020KT 08/05 A3001 RMK A01 T00780050  RH  083%=      5-min Rain = 0
KAM1 051147Z 35018KT 08/05 A3001 RMK A01 T00780050  RH  083%=      5-min Rain = 0
KAM1 051148Z 35019KT 08/05 A3001 RMK A01 T00780051  RH  083%=      5-min Rain = 0
KAM1 051149Z 34018KT 08/05 A3001 RMK A01 T00780051  RH  083%=      5-min Rain = 0
KAM1 051150Z 34019G27KT 08/05 A3001 RMK A01 T00780051  RH  083%=      5-min Rain = 0
KAM1 051151Z 34025G30KT 08/05 A3001 RMK A01 T00780050  RH  083%=      5-min Rain = 0
KAM1 051152Z 35021KT 08/05 A3001 RMK A01 T00790050  RH  082%=      5-min Rain = 0
KAM1 051153Z 35019KT 08/05 A3001 RMK A01 T00790051  RH  082%=      5-min Rain = 0
KAM1 051154Z 34019KT 08/05 A3001 RMK A01 T00790050  RH  082%=      5-min Rain = 0
KAM1 051155Z 34020KT 08/05 A3001 RMK A01 T00790050  RH  082%=      5-min Rain = 0
KAM1 051156Z 34022KT 08/05 A3001 RMK A01 T00790050  RH  082%=      5-min Rain = 0
KAM1 051157Z 34020KT 08/05 A3001 RMK A01 T00790050  RH  082%=      5-min Rain = 0
KAM1 051158Z 34019KT 08/05 A3001 RMK A01 T00790050  RH  082%=      5-min Rain = 0
KAM1 051159Z 34021KT 08/05 A3001 RMK A01 T00790050  RH  082%=      5-min Rain = 0
KAM1 051200Z 34025G32KT 08/05 A3001 RMK A01 T00790050  RH  082%=      5-min Rain = 0
KAM1 051201Z 35022G30KT 08/05 A3002 RMK A01 T00790050  RH  082%=      5-min Rain = 0
KAM1 051202Z 35024KT 08/05 A3002 RMK A01 T00800051  RH  082%=      5-min Rain = 0
KAM1 051203Z 35023KT 08/05 A3002 RMK A01 T00800051  RH  082%=      5-min Rain = 0
KAM1 051204Z 35023G30KT 08/05 A3002 RMK A01 T00800051  RH  082%=      5-min Rain = 0
KAM1 051205Z 34021G27KT 08/05 A3002 RMK A01 T00800051  RH  082%=      5-min Rain = 0
KAM1 051206Z 34022G28KT 08/05 A3002 RMK A01 T00800051  RH  082%=      5-min Rain = 0
KAM1 051207Z 34022G27KT 08/05 A3002 RMK A01 T00800051  RH  082%=      5-min Rain = 0
KAM1 051208Z 34020KT 08/05 A3002 RMK A01 T00790051  RH  082%=      5-min Rain = 0
KAM1 051209Z 34021KT 08/05 A3002 RMK A01 T00790051  RH  082%=      5-min Rain = 0
KAM1 051210Z 34020G26KT 08/05 A3003 RMK A01 T00790051  RH  082%=      5-min Rain = 0
KAM1 051211Z 35021KT 08/05 A3003 RMK A01 T00790051  RH  082%=      5-min Rain = 0
KAM1 051212Z 35020KT 08/05 A3003 RMK A01 T00790051  RH  082%=      5-min Rain = 0
KAM1 051213Z 35017KT 08/05 A3003 RMK A01 T00790051  RH  083%=      5-min Rain = 0
KAM1 051214Z 35021KT 08/05 A3003 RMK A01 T00780051  RH  083%=      5-min Rain = 0
KAM1 051215Z 35021KT 08/05 A3003 RMK A01 T00780051  RH  083%=      5-min Rain = 0
KAM1 051216Z 35021KT 08/05 A3003 RMK A01 T00780052  RH  083%=      5-min Rain = 0
KAM1 051217Z 34019G25KT 08/05 A3003 RMK A01 T00780051  RH  083%=      5-min Rain = 0
KAM1 051218Z 35021G26KT 08/05 A3003 RMK A01 T00780052  RH  084%=      5-min Rain = 0
KAM1 051219Z 35019G24KT 08/05 A3003 RMK A01 T00770052  RH  084%=      5-min Rain = 0
KAM1 051220Z 35020KT 08/05 A3003 RMK A01 T00770052  RH  084%=      5-min Rain = 0
KAM1 051221Z 35020G27KT 08/05 A3003 RMK A01 T00770053  RH  084%=      5-min Rain = 0
KAM1 051222Z 35023KT 08/05 A3003 RMK A01 T00770053  RH  085%=      5-min Rain = 0
KAM1 051223Z 34019KT 08/05 A3003 RMK A01 T00770053  RH  085%=      5-min Rain = 0
KAM1 051224Z 34020G25KT 08/05 A3003 RMK A01 T00770053  RH  085%=      5-min Rain = 0
KAM1 051225Z 35021G26KT 08/05 A3003 RMK A01 T00770053  RH  085%=      5-min Rain = 0
KAM1 051226Z 36021KT 08/05 A3004 RMK A01 T00760053  RH  085%=      5-min Rain = 0
KAM1 051227Z 36020KT 08/05 A3004 RMK A01 T00760053  RH  085%=      5-min Rain = 0
KAM1 051228Z 35020G25KT 08/05 A3004 RMK A01 T00760053  RH  086%=      5-min Rain = 0
KAM1 051229Z 35024G31KT 08/05 A3004 RMK A01 T00760054  RH  086%=      5-min Rain = 0
KAM1 051230Z 35023KT 08/05 A3004 RMK A01 T00760054  RH  086%=      5-min Rain = 0
KAM1 051231Z 35017KT 08/05 A3004 RMK A01 T00760054  RH  086%=      5-min Rain = 0
KAM1 051232Z 35018KT 08/05 A3004 RMK A01 T00750054  RH  086%=      5-min Rain = 0
KAM1 051233Z 35019KT 08/05 A3004 RMK A01 T00750054  RH  087%=      5-min Rain = 0
KAM1 051234Z 35023G28KT 08/05 A3004 RMK A01 T00750054  RH  087%=      5-min Rain = 0
KAM1 051235Z 35021KT 08/05 A3004 RMK A01 T00760054  RH  087%=      5-min Rain = 0
KAM1 051236Z 34021KT 08/05 A3004 RMK A01 T00760054  RH  087%=      5-min Rain = 0
KAM1 051237Z 35019G24KT 08/06 A3004 RMK A01 T00760055  RH  087%=      5-min Rain = 0
KAM1 051238Z 35019KT 08/05 A3004 RMK A01 T00750054  RH  087%=      5-min Rain = 0
KAM1 051239Z 35017G22KT 08/05 A3004 RMK A01 T00750054  RH  087%=      5-min Rain = 0
KAM1 051240Z 35016KT 08/05 A3004 RMK A01 T00750054  RH  087%=      5-min Rain = 0
KAM1 051241Z 35020G25KT 08/05 A3004 RMK A01 T00750054  RH  087%=      5-min Rain = 0
KAM1 051242Z 35020G25KT 08/06 A3004 RMK A01 T00750055  RH  087%=      5-min Rain = 0
KAM1 051243Z 35023KT 08/06 A3004 RMK A01 T00750055  RH  087%=      5-min Rain = 0
KAM1 051244Z 35020G26KT 08/06 A3005 RMK A01 T00750055  RH  087%=      5-min Rain = 0
KAM1 051245Z 35022KT 08/06 A3005 RMK A01 T00750055  RH  087%=      5-min Rain = 0
KAM1 051246Z 36021G26KT 07/06 A3005 RMK A01 T00740055  RH  087%=      5-min Rain = 0
KAM1 051247Z 35023G28KT 07/06 A3005 RMK A01 T00740055  RH  088%=      5-min Rain = 0
KAM1 051248Z 35025KT 07/06 A3005 RMK A01 T00740055  RH  088%=      5-min Rain = 0
KAM1 051249Z 36025G30KT 07/06 A3005 RMK A01 T00740055  RH  088%=      5-min Rain = 0
KAM1 051250Z 35027KT 07/06 A3005 RMK A01 T00740055  RH  088%=      5-min Rain = 0
KAM1 051251Z 35027KT 07/06 A3005 RMK A01 T00740055  RH  088%=      5-min Rain = 0
KAM1 051252Z 35023KT 07/06 A3005 RMK A01 T00740055  RH  088%=      5-min Rain = 0
KAM1 051253Z 35025KT 07/06 A3005 RMK A01 T00740056  RH  088%=      5-min Rain = 0
KAM1 051254Z 36023G29KT 07/06 A3005 RMK A01 T00740056  RH  088%=      5-min Rain = 0
KAM1 051255Z 36020KT 07/06 A3006 RMK A01 T00740056  RH  088%=      5-min Rain = 0
KAM1 051256Z 36021KT 07/06 A3006 RMK A01 T00740056  RH  089%=      5-min Rain = 0
KAM1 051257Z 35021KT 07/06 A3006 RMK A01 T00730055  RH  089%=      5-min Rain = 0
KAM1 051258Z 36019G27KT 07/06 A3006 RMK A01 T00730055  RH  088%=      5-min Rain = 0
KAM1 051259Z 00020G26KT 07/05 A3006 RMK A01 T00730054  RH  088%=      5-min Rain = 0
KAM1 051300Z 00022KT 07/05 A3006 RMK A01 T00710052  RH  087%=      5-min Rain = 0
KAM1 051301Z 00019G24KT 07/05 A3006 RMK A01 T00700051  RH  088%=      5-min Rain = 0
KAM1 051302Z 35020G26KT 07/05 A3006 RMK A01 T00690051  RH  088%=      5-min Rain = 0
KAM1 051303Z 35026G31KT 07/05 A3006 RMK A01 T00680050  RH  088%=      5-min Rain = 0
KAM1 051304Z 36025G32KT 07/05 A3006 RMK A01 T00680050  RH  089%=      5-min Rain = 0
KAM1 051305Z 36025G32KT 07/05 A3006 RMK A01 T00670050  RH  089%=      5-min Rain = 0
KAM1 051306Z 35018G23KT 07/05 A3007 RMK A01 T00660050  RH  089%=      5-min Rain = 0
KAM1 051307Z 35017G22KT 07/05 A3007 RMK A01 T00660050  RH  089%=      5-min Rain = 0
KAM1 051308Z 35018G23KT 07/05 A3007 RMK A01 T00660050  RH  089%=      5-min Rain = 0
KAM1 051309Z 36019G26KT 07/05 A3007 RMK A01 T00660050  RH  089%=      5-min Rain = 0
KAM1 051310Z 01023KT 07/05 A3007 RMK A01 T00660049  RH  089%=      5-min Rain = 0
KAM1 051311Z 35026KT 07/05 A3007 RMK A01 T00650047  RH  088%=      5-min Rain = 0
KAM1 051312Z 35025KT 07/05 A3007 RMK A01 T00650047  RH  088%=      5-min Rain = 0
KAM1 051313Z 00020G26KT 06/05 A3007 RMK A01 T00640046  RH  088%=      5-min Rain = 0
KAM1 051314Z 00023KT 06/05 A3007 RMK A01 T00640045  RH  088%=      5-min Rain = 0
KAM1 051315Z 36023G28KT 06/04 A3007 RMK A01 T00630043  RH  087%=      5-min Rain = 0
KAM1 051316Z 35025KT 06/04 A3007 RMK A01 T00630042  RH  086%=      5-min Rain = 0
KAM1 051317Z 35025KT 06/04 A3007 RMK A01 T00630040  RH  086%=      5-min Rain = 0
KAM1 051318Z 36021G26KT 06/04 A3007 RMK A01 T00620039  RH  085%=      5-min Rain = 0
KAM1 051319Z 00020G27KT 06/04 A3008 RMK A01 T00620038  RH  085%=      5-min Rain = 0
KAM1 051320Z 00023G29KT 06/04 A3008 RMK A01 T00610036  RH  084%=      5-min Rain = 0
KAM1 051321Z 00022G29KT 06/03 A3008 RMK A01 T00600034  RH  084%=      5-min Rain = 0
KAM1 051322Z 00024G30KT 06/03 A3008 RMK A01 T00590033  RH  083%=      5-min Rain = 0
KAM1 051323Z 35023KT 06/03 A3008 RMK A01 T00580031  RH  083%=      5-min Rain = 0
KAM1 051324Z 36022KT 06/03 A3009 RMK A01 T00580031  RH  083%=      5-min Rain = 0
KAM1 051325Z 00020G25KT 06/03 A3009 RMK A01 T00570030  RH  083%=      5-min Rain = 0
KAM1 051326Z 00022KT 06/03 A3009 RMK A01 T00570029  RH  082%=      5-min Rain = 0
KAM1 051327Z 00023G30KT 06/03 A3009 RMK A01 T00560028  RH  082%=      5-min Rain = 0
KAM1 051328Z 00022KT 06/03 A301 RMK A01 T00550027  RH  082%=      5-min Rain = 0
KAM1 051329Z 00023KT 05/03 A301 RMK A01 T00540026  RH  082%=      5-min Rain = 0
KAM1 051330Z 00022KT 05/03 A301 RMK A01 T00540025  RH  082%=      5-min Rain = 0
KAM1 051331Z 01022KT 05/03 A301 RMK A01 T00530025  RH  082%=      5-min Rain = 0
KAM1 051332Z 00020KT 05/03 A301 RMK A01 T00530025  RH  082%=      5-min Rain = 0
KAM1 051333Z 00020KT 05/03 A301 RMK A01 T00530025  RH  082%=      5-min Rain = 0
KAM1 051334Z 01015KT 05/03 A301 RMK A01 T00520025  RH  083%=      5-min Rain = 0
KAM1 051335Z 01018KT 05/03 A3011 RMK A01 T00520025  RH  083%=      5-min Rain = 0
KAM1 051336Z 00017KT 05/03 A3011 RMK A01 T00520025  RH  083%=      5-min Rain = 0
KAM1 051337Z 01015G20KT 05/03 A3011 RMK A01 T00520025  RH  083%=      5-min Rain = 0
KAM1 051338Z 00019KT 05/03 A3011 RMK A01 T00520025  RH  083%=      5-min Rain = 0
KAM1 051339Z 00018KT 05/03 A3011 RMK A01 T00510025  RH  083%=      5-min Rain = 0
KAM1 051340Z 00017KT 05/03 A3011 RMK A01 T00510025  RH  083%=      5-min Rain = 0
KAM1 051341Z 00016KT 05/03 A3011 RMK A01 T00510026  RH  084%=      5-min Rain = 0
KAM1 051342Z 36018KT 05/03 A3011 RMK A01 T00510026  RH  084%=      5-min Rain = 0
KAM1 051343Z 00015KT 05/03 A3012 RMK A01 T00510026  RH  084%=      5-min Rain = 0
KAM1 051344Z 00014KT 05/03 A3012 RMK A01 T00510026  RH  084%=      5-min Rain = 0
KAM1 051345Z 36015KT 05/03 A3012 RMK A01 T00510026  RH  084%=      5-min Rain = 0
KAM1 051346Z 36013KT 05/03 A3012 RMK A01 T00510026  RH  084%=      5-min Rain = 0
KAM1 051347Z 36016KT 05/03 A3012 RMK A01 T00510026  RH  084%=      5-min Rain = 0
KAM1 051348Z 00017KT 05/03 A3012 RMK A01 T00510025  RH  084%=      5-min Rain = 0
KAM1 051349Z 00013KT 05/03 A3012 RMK A01 T00510025  RH  084%=      5-min Rain = 0
KAM1 051350Z 36013KT 05/03 A3013 RMK A01 T00510025  RH  084%=      5-min Rain = 0
KAM1 051351Z 35015KT 05/03 A3012 RMK A01 T00510025  RH  084%=      5-min Rain = 0
KAM1 051352Z 36014KT 05/03 A3013 RMK A01 T00510025  RH  084%=      5-min Rain = 0
KAM1 051353Z 00017KT 05/03 A3013 RMK A01 T00510025  RH  083%=      5-min Rain = 0
KAM1 051354Z 36016KT 05/03 A3013 RMK A01 T00510025  RH  083%=      5-min Rain = 0
KAM1 051355Z 00016KT 05/03 A3013 RMK A01 T00510025  RH  083%=      5-min Rain = 0
KAM1 051356Z 36014KT 05/02 A3013 RMK A01 T00500024  RH  083%=      5-min Rain = 0
KAM1 051357Z 00013KT 05/03 A3013 RMK A01 T00500025  RH  083%=      5-min Rain = 0
KAM1 051358Z 00014KT 05/02 A3013 RMK A01 T00500024  RH  083%=      5-min Rain = 0
KAM1 051359Z 36012KT 05/02 A3014 RMK A01 T00500024  RH  083%=      5-min Rain = 0
KAM1 051400Z 36013KT 05/02 A3014 RMK A01 T00500024  RH  083%=      5-min Rain = 0
KAM1 051401Z 35014KT 05/02 A3014 RMK A01 T00500024  RH  083%=      5-min Rain = 0
KAM1 051402Z 36015KT 05/02 A3014 RMK A01 T00500024  RH  083%=      5-min Rain = 0
KAM1 051403Z 35014KT 05/02 A3014 RMK A01 T00500023  RH  083%=      5-min Rain = 0
KAM1 051404Z 36014KT 05/02 A3014 RMK A01 T00500024  RH  083%=      5-min Rain = 0
KAM1 051405Z 35012KT 05/02 A3014 RMK A01 T00500024  RH  084%=      5-min Rain = 0
KAM1 051406Z 36012KT 05/02 A3014 RMK A01 T00500024  RH  084%=      5-min Rain = 0
KAM1 051407Z 36012KT 05/03 A3015 RMK A01 T00500025  RH  084%=      5-min Rain = 0
KAM1 051408Z 36011KT 05/03 A3015 RMK A01 T00500025  RH  084%=      5-min Rain = 0
KAM1 051409Z 00012G18KT 05/03 A3015 RMK A01 T00500025  RH  084%=      5-min Rain = 0
KAM1 051410Z 36012KT 05/03 A3015 RMK A01 T00490026  RH  085%=      5-min Rain = 0
KAM1 051411Z 00013KT 05/03 A3015 RMK A01 T00490027  RH  086%=      5-min Rain = 0
KAM1 051412Z 00015KT 05/03 A3015 RMK A01 T00490029  RH  087%=      5-min Rain = 0
KAM1 051413Z 01014KT 05/03 A3015 RMK A01 T00490031  RH  088%=      5-min Rain = 0
KAM1 051414Z 00016KT 05/03 A3015 RMK A01 T00490031  RH  088%=      5-min Rain = 0
KAM1 051415Z 00014KT 05/03 A3015 RMK A01 T00490033  RH  089%=      5-min Rain = 0
KAM1 051416Z 01011KT 05/03 A3015 RMK A01 T00490033  RH  090%=      5-min Rain = 0
KAM1 051417Z 00012KT 05/04 A3015 RMK A01 T00490035  RH  090%=      5-min Rain = 0
KAM1 051418Z 01011KT 05/04 A3015 RMK A01 T00490035  RH  091%=      5-min Rain = 0
KAM1 051419Z 00014KT 05/04 A3015 RMK A01 T00500037  RH  091%=      5-min Rain = 0
KAM1 051420Z 00014KT 05/04 A3016 RMK A01 T00500039  RH  092%=      5-min Rain = 0
KAM1 051421Z 00015KT 05/04 A3016 RMK A01 T00500040  RH  093%=      5-min Rain = 0
KAM1 051422Z 00014KT 05/04 A3016 RMK A01 T00510042  RH  094%=      5-min Rain = 0
KAM1 051423Z 01013KT 05/04 A3016 RMK A01 T00510044  RH  095%=      5-min Rain = 0
KAM1 051424Z 01013KT 05/05 A3016 RMK A01 T00510045  RH  095%=      5-min Rain = 0
KAM1 051425Z 00012KT 05/05 A3016 RMK A01 T00520046  RH  096%=      5-min Rain = 0
KAM1 051426Z 01013KT 05/05 A3016 RMK A01 T00520048  RH  097%=      5-min Rain = 0
KAM1 051427Z 00014KT 05/05 A3016 RMK A01 T00530050  RH  098%=      5-min Rain = 0
KAM1 051428Z 00014KT 05/05 A3016 RMK A01 T00540051  RH  099%=      5-min Rain = 0
KAM1 051429Z 00014KT 05/05 A3016 RMK A01 T00540052  RH  099%=      5-min Rain = 0
KAM1 051430Z 36011KT 05/05 A3016 RMK A01 T00540052  RH  099%=      5-min Rain = 0
KAM1 051431Z 36012KT 05/05 A3017 RMK A01 T00540052  RH  098%=      5-min Rain = 0
KAM1 051432Z 00014KT 05/05 A3017 RMK A01 T00540052  RH  099%=      5-min Rain = 0
KAM1 051433Z 36011KT 05/05 A3017 RMK A01 T00540054  RH  100%=      5-min Rain = 0
KAM1 051434Z 36010KT 05/05 A3017 RMK A01 T00540054  RH  100%=      5-min Rain = 0
KAM1 051435Z 36012KT 06/06 A3017 RMK A01 T00550055  RH  100%=      5-min Rain = 0
KAM1 051436Z 35013KT 06/06 A3017 RMK A01 T00550055  RH  100%=      5-min Rain = 0
KAM1 051437Z 35012KT 06/06 A3017 RMK A01 T00550055  RH  100%=      5-min Rain = 0
KAM1 051438Z 35010KT 06/06 A3017 RMK A01 T00560055  RH  100%=      5-min Rain = 0
KAM1 051439Z 35012KT 06/06 A3017 RMK A01 T00550055  RH  100%=      5-min Rain = 0
KAM1 051440Z 35011KT 06/06 A3017 RMK A01 T00560055  RH  100%=      5-min Rain = 0
KAM1 051441Z 36011KT 06/06 A3017 RMK A01 T00550055  RH  100%=      5-min Rain = 0
KAM1 051442Z 36014KT 06/06 A3017 RMK A01 T00560056  RH  100%=      5-min Rain = 0
KAM1 051443Z 36012KT 06/06 A3017 RMK A01 T00560056  RH  100%=      5-min Rain = 0
KAM1 051444Z 35013KT 06/06 A3017 RMK A01 T00570057  RH  100%=      5-min Rain = 0
KAM1 051445Z 35013KT 06/06 A3017 RMK A01 T00570057  RH  100%=      5-min Rain = 0
KAM1 051446Z 36012KT 06/06 A3017 RMK A01 T00570057  RH  100%=      5-min Rain = 0
KAM1 051447Z 35014KT 06/06 A3017 RMK A01 T00570057  RH  100%=      5-min Rain = 0
KAM1 051448Z 35013KT 06/06 A3017 RMK A01 T00590059  RH  100%=      5-min Rain = 0
KAM1 051449Z 35011KT 06/06 A3017 RMK A01 T00590059  RH  100%=      5-min Rain = 0
KAM1 051450Z 35012KT 06/06 A3018 RMK A01 T00590059  RH  100%=      5-min Rain = 0
KAM1 051451Z 35013KT 06/06 A3018 RMK A01 T00600060  RH  100%=      5-min Rain = 0
KAM1 051452Z 35014KT 06/06 A3018 RMK A01 T00600060  RH  100%=      5-min Rain = 0
KAM1 051453Z 35016KT 06/06 A3018 RMK A01 T00610061  RH  100%=      5-min Rain = 0
KAM1 051454Z 35014KT 06/06 A3018 RMK A01 T00610061  RH  100%=      5-min Rain = 0
KAM1 051455Z 35013KT 06/06 A3018 RMK A01 T00620062  RH  100%=      5-min Rain = 0
KAM1 051456Z 35014KT 06/06 A3018 RMK A01 T00620062  RH  100%=      5-min Rain = 0
KAM1 051457Z 35014KT 06/06 A3018 RMK A01 T00620062  RH  100%=      5-min Rain = 0
KAM1 051458Z 34014KT 06/06 A3018 RMK A01 T00630063  RH  100%=      5-min Rain = 0
KAM1 051459Z 34015KT 06/06 A3018 RMK A01 T00630063  RH  100%=      5-min Rain = 0
KAM1 051500Z 34015KT 06/06 A3018 RMK A01 T00630063  RH  100%=      5-min Rain = 0
KAM1 051501Z 35018KT 06/06 A3018 RMK A01 T00640064  RH  100%=      5-min Rain = 0
KAM1 051502Z 35017KT 07/07 A3018 RMK A01 T00650065  RH  100%=      5-min Rain = 0
KAM1 051503Z 35020KT 07/06 A3018 RMK A01 T00660064  RH  099%=      5-min Rain = 0
KAM1 051504Z 35015G20KT 07/06 A3018 RMK A01 T00670064  RH  098%=      5-min Rain = 0
KAM1 051505Z 35018G23KT 07/06 A3018 RMK A01 T00680063  RH  097%=      5-min Rain = 0
KAM1 051506Z 35015G20KT 07/06 A3018 RMK A01 T00690063  RH  096%=      5-min Rain = 0
KAM1 051507Z 35015KT 07/06 A3018 RMK A01 T00690063  RH  096%=      5-min Rain = 0
KAM1 051508Z 36018G23KT 07/06 A3018 RMK A01 T00690062  RH  095%=      5-min Rain = 0
KAM1 051509Z 36019KT 07/06 A3018 RMK A01 T00700062  RH  095%=      5-min Rain = 0
KAM1 051510Z 35018KT 07/06 A3018 RMK A01 T00700061  RH  095%=      5-min Rain = 0
KAM1 051511Z 35017KT 07/06 A3018 RMK A01 T00700061  RH  094%=      5-min Rain = 0
KAM1 051512Z 35016KT 07/06 A3018 RMK A01 T00700061  RH  094%=      5-min Rain = 0
KAM1 051513Z 35015KT 07/06 A3018 RMK A01 T00710062  RH  094%=      5-min Rain = 0
KAM1 051514Z 35020G26KT 07/06 A3018 RMK A01 T00710061  RH  093%=      5-min Rain = 0
KAM1 051515Z 35022KT 07/06 A3018 RMK A01 T00710059  RH  092%=      5-min Rain = 0
KAM1 051516Z 35021KT 07/06 A3019 RMK A01 T00710058  RH  091%=      5-min Rain = 0
KAM1 051517Z 35018G25KT 07/06 A3018 RMK A01 T00720057  RH  091%=      5-min Rain = 0
KAM1 051518Z 35019G24KT 07/06 A3019 RMK A01 T00720057  RH  090%=      5-min Rain = 0
KAM1 051519Z 00016G22KT 07/06 A3019 RMK A01 T00720057  RH  090%=      5-min Rain = 0
KAM1 051520Z 35019KT 07/06 A3019 RMK A01 T00720058  RH  090%=      5-min Rain = 0
KAM1 051521Z 35020G25KT 07/06 A3019 RMK A01 T00730057  RH  090%=      5-min Rain = 0
KAM1 051522Z 35020G25KT 07/06 A3019 RMK A01 T00730056  RH  089%=      5-min Rain = 0
KAM1 051523Z 36021KT 07/06 A3018 RMK A01 T00730055  RH  089%=      5-min Rain = 0
KAM1 051524Z 36019KT 07/06 A3019 RMK A01 T00730055  RH  088%=      5-min Rain = 0
KAM1 051525Z 36020G25KT 07/06 A3019 RMK A01 T00730055  RH  088%=      5-min Rain = 0
KAM1 051526Z 36018KT 07/06 A3019 RMK A01 T00740056  RH  088%=      5-min Rain = 0
KAM1 051527Z 36019KT 07/06 A3019 RMK A01 T00740056  RH  088%=      5-min Rain = 0
KAM1 051528Z 36016KT 07/06 A3019 RMK A01 T00740056  RH  088%=      5-min Rain = 0
KAM1 051529Z 00016KT 07/06 A3019 RMK A01 T00740056  RH  088%=      5-min Rain = 0
KAM1 051530Z 35018KT 08/06 A3019 RMK A01 T00750056  RH  088%=      5-min Rain = 0
KAM1 051531Z 36019G24KT 08/06 A3019 RMK A01 T00750056  RH  087%=      5-min Rain = 0
KAM1 051532Z 36023G29KT 08/06 A3019 RMK A01 T00760055  RH  087%=      5-min Rain = 0
KAM1 051533Z 36023KT 08/05 A3019 RMK A01 T00750054  RH  086%=      5-min Rain = 0
KAM1 051534Z 35022KT 08/05 A3019 RMK A01 T00750054  RH  087%=      5-min Rain = 0
KAM1 051535Z 00022KT 07/05 A3019 RMK A01 T00740054  RH  087%=      5-min Rain = 0
KAM1 051536Z 36021KT 08/05 A3019 RMK A01 T00750054  RH  087%=      5-min Rain = 0
KAM1 051537Z 01022KT 07/05 A3019 RMK A01 T00740054  RH  087%=      5-min Rain = 0
KAM1 051538Z 01022G27KT 07/05 A3019 RMK A01 T00740054  RH  087%=      5-min Rain = 0
KAM1 051539Z 00024KT 07/06 A3019 RMK A01 T00730055  RH  088%=      5-min Rain = 0
KAM1 051540Z 00021KT 07/06 A3019 RMK A01 T00730056  RH  089%=      5-min Rain = 0
KAM1 051541Z 00019G24KT 07/06 A3019 RMK A01 T00720058  RH  090%=      5-min Rain = 0
KAM1 051542Z 35022KT 07/06 A3019 RMK A01 T00730058  RH  091%=      5-min Rain = 0
KAM1 051543Z 00023KT 07/06 A3019 RMK A01 T00730058  RH  090%=      5-min Rain = 0
KAM1 051544Z 36019G25KT 07/06 A3019 RMK A01 T00730058  RH  090%=      5-min Rain = 0
KAM1 051545Z 01024G29KT 07/06 A3019 RMK A01 T00730058  RH  090%=      5-min Rain = 0
KAM1 051546Z 36022KT 07/06 A3019 RMK A01 T00730058  RH  090%=      5-min Rain = 0
KAM1 051547Z 00021KT 07/06 A3019 RMK A01 T00730060  RH  091%=      5-min Rain = 0
KAM1 051548Z 36022KT 07/06 A3019 RMK A01 T00740061  RH  092%=      5-min Rain = 0
KAM1 051549Z 01020KT 07/06 A3019 RMK A01 T00730061  RH  092%=      5-min Rain = 0
KAM1 051550Z 36018G23KT 07/06 A3019 RMK A01 T00720063  RH  094%=      5-min Rain = 0
KAM1 051551Z 36021KT 07/06 A3019 RMK A01 T00710063  RH  095%=      5-min Rain = 0
KAM1 051552Z 00019G24KT 07/07 A3019 RMK A01 T00710065  RH  096%=      5-min Rain = 0
KAM1 051553Z 36023G30KT 07/07 A302 RMK A01 T00700066  RH  097%=      5-min Rain = 0
KAM1 051554Z 36019KT 07/07 A3019 RMK A01 T00700066  RH  097%=      5-min Rain = 0
KAM1 051555Z 35018G23KT 07/07 A3019 RMK A01 T00710069  RH  099%=      5-min Rain = 0
KAM1 051556Z 36020KT 07/07 A3019 RMK A01 T00710068  RH  098%=      5-min Rain = 0
KAM1 051557Z 36017KT 07/07 A302 RMK A01 T00710070  RH  099%=      5-min Rain = 0
KAM1 051558Z 00021KT 07/07 A302 RMK A01 T00710070  RH  099%=      5-min Rain = 0
KAM1 051559Z 36021KT 07/07 A302 RMK A01 T00710068  RH  098%=      5-min Rain = 0
KAM1 051600Z 01023G29KT 07/07 A302 RMK A01 T00710067  RH  097%=      5-min Rain = 0
KAM1 051601Z 00019KT 07/07 A302 RMK A01 T00710067  RH  098%=      5-min Rain = 0
KAM1 051602Z 00019KT 07/07 A302 RMK A01 T00710068  RH  098%=      5-min Rain = 0
KAM1 051603Z 00020KT 07/07 A302 RMK A01 T00710068  RH  098%=      5-min Rain = 0
KAM1 051604Z 00020KT 07/07 A302 RMK A01 T00710067  RH  097%=      5-min Rain = 0
KAM1 051605Z 00021G29KT 07/07 A302 RMK A01 T00710066  RH  097%=      5-min Rain = 0
KAM1 051606Z 36024KT 07/07 A302 RMK A01 T00720066  RH  096%=      5-min Rain = 0
KAM1 051607Z 00016KT 07/07 A3021 RMK A01 T00720067  RH  097%=      5-min Rain = 0
KAM1 051608Z 00016G22KT 07/07 A3021 RMK A01 T00730068  RH  097%=      5-min Rain = 0
KAM1 051609Z 00019G25KT 07/07 A3021 RMK A01 T00740068  RH  096%=      5-min Rain = 0
KAM1 051610Z 00021G26KT 07/07 A3021 RMK A01 T00740068  RH  095%=      5-min Rain = 0
KAM1 051611Z 00021KT 07/07 A3021 RMK A01 T00740067  RH  095%=      5-min Rain = 0
KAM1 051612Z 01021KT 07/07 A3021 RMK A01 T00740066  RH  095%=      5-min Rain = 0
KAM1 051613Z 00018G24KT 07/07 A3021 RMK A01 T00730065  RH  095%=      5-min Rain = 0
KAM1 051614Z 01018G24KT 07/07 A3021 RMK A01 T00720065  RH  095%=      5-min Rain = 0
KAM1 051615Z 00018KT 07/07 A3021 RMK A01 T00720065  RH  096%=      5-min Rain = 0
KAM1 051616Z 00019G25KT 07/07 A3021 RMK A01 T00720066  RH  096%=      5-min Rain = 0
KAM1 051617Z 00023KT 07/07 A3022 RMK A01 T00720065  RH  096%=      5-min Rain = 0
KAM1 051618Z 01023G31KT 07/07 A3021 RMK A01 T00720065  RH  095%=      5-min Rain = 0
KAM1 051619Z 01022KT 07/07 A3022 RMK A01 T00710065  RH  096%=      5-min Rain = 0
KAM1 051620Z 01018KT 07/07 A3022 RMK A01 T00700066  RH  097%=      5-min Rain = 0
KAM1 051621Z 01018KT 07/07 A3022 RMK A01 T00700067  RH  098%=      5-min Rain = 0
KAM1 051622Z 01017KT 07/07 A3022 RMK A01 T00700068  RH  098%=      5-min Rain = 0
KAM1 051623Z 01019KT 07/07 A3022 RMK A01 T00710068  RH  099%=      5-min Rain = 0
KAM1 051624Z 01020G26KT 07/07 A3022 RMK A01 T00700067  RH  098%=      5-min Rain = 0
KAM1 051625Z 01022KT 07/07 A3022 RMK A01 T00700067  RH  098%=      5-min Rain = 0
KAM1 051626Z 01021KT 07/07 A3022 RMK A01 T00690065  RH  097%=      5-min Rain = 0
KAM1 051627Z 01018KT 07/07 A3022 RMK A01 T00700065  RH  097%=      5-min Rain = 0
KAM1 051628Z 01020KT 07/07 A3022 RMK A01 T00700065  RH  097%=      5-min Rain = 0
KAM1 051629Z 01020KT 07/07 A3022 RMK A01 T00700065  RH  096%=      5-min Rain = 0
KAM1 051630Z 01018G23KT 07/06 A3022 RMK A01 T00710064  RH  095%=      5-min Rain = 0
KAM1 051631Z 01019G24KT 07/06 A3022 RMK A01 T00710063  RH  095%=      5-min Rain = 0
KAM1 051632Z 01018KT 07/06 A3022 RMK A01 T00720063  RH  094%=      5-min Rain = 0
KAM1 051633Z 01019KT 07/06 A3023 RMK A01 T00730063  RH  093%=      5-min Rain = 0
KAM1 051634Z 01021KT 07/06 A3023 RMK A01 T00740062  RH  092%=      5-min Rain = 0
KAM1 051635Z 01024KT 08/06 A3023 RMK A01 T00760060  RH  090%=      5-min Rain = 0
KAM1 051636Z 01023G30KT 08/06 A3023 RMK A01 T00780060  RH  089%=      5-min Rain = 0
KAM1 051637Z 01023KT 08/06 A3023 RMK A01 T00810061  RH  087%=      5-min Rain = 0
KAM1 051638Z 02024G29KT 08/06 A3023 RMK A01 T00830061  RH  086%=      5-min Rain = 0
KAM1 051639Z 01021KT 08/06 A3023 RMK A01 T00840060  RH  085%=      5-min Rain = 0
KAM1 051640Z 01020G25KT 09/06 A3023 RMK A01 T00860061  RH  084%=      5-min Rain = 0
KAM1 051641Z 01020G27KT 09/06 A3023 RMK A01 T00870058  RH  082%=      5-min Rain = 0
KAM1 051642Z 01023KT 09/05 A3023 RMK A01 T00870054  RH  080%=      5-min Rain = 0
KAM1 051643Z 01017G22KT 09/05 A3023 RMK A01 T00850051  RH  079%=      5-min Rain = 0
KAM1 051644Z 00017G23KT 08/05 A3023 RMK A01 T00840050  RH  079%=      5-min Rain = 0
KAM1 051645Z 01020G25KT 09/05 A3023 RMK A01 T00850048  RH  077%=      5-min Rain = 0
KAM1 051646Z 02021KT 09/05 A3023 RMK A01 T00850045  RH  076%=      5-min Rain = 0
KAM1 051647Z 02020KT 08/05 A3023 RMK A01 T00830045  RH  077%=      5-min Rain = 0
KAM1 051648Z 02023KT 08/05 A3023 RMK A01 T00830045  RH  077%=      5-min Rain = 0
KAM1 051649Z 02021G26KT 08/05 A3023 RMK A01 T00820045  RH  077%=      5-min Rain = 0
KAM1 051650Z 02022G27KT 08/05 A3023 RMK A01 T00820047  RH  078%=      5-min Rain = 0
KAM1 051651Z 02022KT 08/05 A3023 RMK A01 T00840048  RH  078%=      5-min Rain = 0
KAM1 051652Z 02017G23KT 09/05 A3023 RMK A01 T00870049  RH  077%=      5-min Rain = 0
KAM1 051653Z 02018KT 09/05 A3023 RMK A01 T00880047  RH  075%=      5-min Rain = 0
KAM1 051654Z 03017G23KT 09/05 A3024 RMK A01 T00890047  RH  075%=      5-min Rain = 0
KAM1 051655Z 02020G27KT 09/05 A3023 RMK A01 T00900046  RH  074%=      5-min Rain = 0
KAM1 051656Z 02020G27KT 09/04 A3024 RMK A01 T00890041  RH  072%=      5-min Rain = 0
KAM1 051657Z 02022G27KT 09/04 A3024 RMK A01 T00870040  RH  072%=      5-min Rain = 0
KAM1 051658Z 02023KT 09/04 A3024 RMK A01 T00850040  RH  073%=      5-min Rain = 0
KAM1 051659Z 02021G26KT 09/04 A3024 RMK A01 T00850040  RH  073%=      5-min Rain = 0
KAM1 051700Z 02020G25KT 09/04 A3024 RMK A01 T00850040  RH  073%=      5-min Rain = 0
KAM1 051701Z 03024KT 09/04 A3024 RMK A01 T00850039  RH  073%=      5-min Rain = 0
KAM1 051702Z 03023KT 08/04 A3024 RMK A01 T00840037  RH  072%=      5-min Rain = 0
KAM1 051703Z 03022G27KT 08/04 A3024 RMK A01 T00840037  RH  073%=      5-min Rain = 0
KAM1 051704Z 02025KT 08/04 A3024 RMK A01 T00840037  RH  072%=      5-min Rain = 0
KAM1 051705Z 03024KT 08/04 A3024 RMK A01 T00830036  RH  072%=      5-min Rain = 0
KAM1 051706Z 02020KT 08/04 A3024 RMK A01 T00820036  RH  073%=      5-min Rain = 0
KAM1 051707Z 02026KT 08/04 A3024 RMK A01 T00830036  RH  072%=      5-min Rain = 0
KAM1 051708Z 02028KT 08/04 A3024 RMK A01 T00830035  RH  072%=      5-min Rain = 0
KAM1 051709Z 02022KT 08/04 A3024 RMK A01 T00830036  RH  072%=      5-min Rain = 0
KAM1 051710Z 02023KT 08/04 A3024 RMK A01 T00830036  RH  072%=      5-min Rain = 0
KAM1 051711Z 02022G28KT 08/04 A3024 RMK A01 T00830036  RH  072%=      5-min Rain = 0
KAM1 051712Z 02022G28KT 08/04 A3024 RMK A01 T00830037  RH  073%=      5-min Rain = 0
KAM1 051713Z 02023G28KT 08/04 A3025 RMK A01 T00830037  RH  073%=      5-min Rain = 0
KAM1 051714Z 02018KT 08/04 A3024 RMK A01 T00830037  RH  073%=      5-min Rain = 0
KAM1 051715Z 02019KT 08/04 A3024 RMK A01 T00840038  RH  073%=      5-min Rain = 0
KAM1 051716Z 02019KT 08/04 A3024 RMK A01 T00840038  RH  072%=      5-min Rain = 0
KAM1 051717Z 02022G29KT 09/04 A3025 RMK A01 T00850037  RH  072%=      5-min Rain = 0
KAM1 051718Z 02023KT 08/04 A3025 RMK A01 T00830035  RH  072%=      5-min Rain = 0
KAM1 051719Z 02024KT 08/04 A3025 RMK A01 T00820035  RH  072%=      5-min Rain = 0
KAM1 051720Z 02022G28KT 08/04 A3025 RMK A01 T00810035  RH  073%=      5-min Rain = 0
KAM1 051721Z 02022G27KT 08/04 A3025 RMK A01 T00810035  RH  073%=      5-min Rain = 0
KAM1 051722Z 02020KT 08/04 A3025 RMK A01 T00800035  RH  073%=      5-min Rain = 0
KAM1 051723Z 02019KT 08/04 A3025 RMK A01 T00800035  RH  073%=      5-min Rain = 0
KAM1 051724Z 02017KT 08/04 A3025 RMK A01 T00800036  RH  074%=      5-min Rain = 0
KAM1 051725Z 02021KT 08/04 A3025 RMK A01 T00790035  RH  074%=      5-min Rain = 0
KAM1 051726Z 02022KT 08/04 A3026 RMK A01 T00800036  RH  074%=      5-min Rain = 0
KAM1 051727Z 02021KT 08/04 A3026 RMK A01 T00780035  RH  074%=      5-min Rain = 0
KAM1 051728Z 02020KT 08/04 A3026 RMK A01 T00780036  RH  074%=      5-min Rain = 0
KAM1 051729Z 03017G22KT 08/04 A3026 RMK A01 T00780036  RH  075%=      5-min Rain = 0
KAM1 051730Z 04019KT 08/04 A3026 RMK A01 T00780038  RH  076%=      5-min Rain = 0
KAM1 051731Z 03020KT 08/04 A3026 RMK A01 T00770039  RH  077%=      5-min Rain = 0
KAM1 051732Z 04018KT 08/04 A3026 RMK A01 T00760040  RH  078%=      5-min Rain = 0
KAM1 051733Z 03017KT 08/04 A3026 RMK A01 T00760042  RH  079%=      5-min Rain = 0
KAM1 051734Z 02018G23KT 08/04 A3026 RMK A01 T00790042  RH  077%=      5-min Rain = 0
KAM1 051735Z 02018KT 08/04 A3026 RMK A01 T00800040  RH  076%=      5-min Rain = 0
KAM1 051736Z 02018KT 08/04 A3026 RMK A01 T00800039  RH  075%=      5-min Rain = 0
KAM1 051737Z 02019KT 08/04 A3026 RMK A01 T00810038  RH  075%=      5-min Rain = 0
KAM1 051738Z 02016KT 08/04 A3026 RMK A01 T00810039  RH  075%=      5-min Rain = 0
KAM1 051739Z 02018G24KT 08/04 A3026 RMK A01 T00820038  RH  074%=      5-min Rain = 0
KAM1 051740Z 01019KT 08/04 A3026 RMK A01 T00820038  RH  074%=      5-min Rain = 0
KAM1 051741Z 01017KT 08/04 A3026 RMK A01 T00820036  RH  073%=      5-min Rain = 0
KAM1 051742Z 01016KT 08/04 A3026 RMK A01 T00810037  RH  073%=      5-min Rain = 0
KAM1 051743Z 01019KT 08/04 A3026 RMK A01 T00810037  RH  073%=      5-min Rain = 0
KAM1 051744Z 01017KT 08/04 A3026 RMK A01 T00810036  RH  073%=      5-min Rain = 0
KAM1 051745Z 02018G23KT 08/04 A3026 RMK A01 T00810037  RH  074%=      5-min Rain = 0
KAM1 051746Z 01019G24KT 08/04 A3026 RMK A01 T00810036  RH  074%=      5-min Rain = 0
KAM1 051747Z 01017KT 08/04 A3026 RMK A01 T00800036  RH  074%=      5-min Rain = 0
KAM1 051748Z 02019G25KT 08/04 A3026 RMK A01 T00810037  RH  074%=      5-min Rain = 0
KAM1 051749Z 01020KT 08/04 A3026 RMK A01 T00810037  RH  074%=      5-min Rain = 0
KAM1 051750Z 02019KT 08/04 A3026 RMK A01 T00800037  RH  074%=      5-min Rain = 0
KAM1 051751Z 02017KT 08/04 A3026 RMK A01 T00800037  RH  074%=      5-min Rain = 0
KAM1 051752Z 02020KT 08/04 A3026 RMK A01 T00800037  RH  074%=      5-min Rain = 0
KAM1 051753Z 02019KT 08/04 A3026 RMK A01 T00800037  RH  074%=      5-min Rain = 0
KAM1 051754Z 02016KT 08/04 A3026 RMK A01 T00800037  RH  075%=      5-min Rain = 0
KAM1 051755Z 02015KT 08/04 A3026 RMK A01 T00800038  RH  075%=      5-min Rain = 0
KAM1 051756Z 02018G25KT 08/04 A3026 RMK A01 T00820040  RH  075%=      5-min Rain = 0
KAM1 051757Z 01018KT 08/04 A3026 RMK A01 T00830039  RH  074%=      5-min Rain = 0
KAM1 051758Z 02019G24KT 08/04 A3026 RMK A01 T00830039  RH  074%=      5-min Rain = 0
KAM1 051759Z 01021KT 08/04 A3026 RMK A01 T00830038  RH  074%=      5-min Rain = 0
KAM1 051800Z 02020KT 08/04 A3026 RMK A01 T00820038  RH  074%=      5-min Rain = 0
KAM1 051801Z 02017KT 08/04 A3026 RMK A01 T00820039  RH  074%=      5-min Rain = 0
KAM1 051802Z 01016KT 08/04 A3026 RMK A01 T00810038  RH  074%=      5-min Rain = 0
KAM1 051803Z 02019KT 08/04 A3026 RMK A01 T00820039  RH  074%=      5-min Rain = 0
KAM1 051804Z 02019KT 08/04 A3026 RMK A01 T00820038  RH  074%=      5-min Rain = 0
KAM1 051805Z 01018KT 08/04 A3026 RMK A01 T00810038  RH  074%=      5-min Rain = 0
KAM1 051806Z 01015KT 08/04 A3026 RMK A01 T00800038  RH  075%=      5-min Rain = 0
KAM1 051807Z 02015G21KT 08/04 A3027 RMK A01 T00800038  RH  075%=      5-min Rain = 0
KAM1 051808Z 02013KT 08/04 A3027 RMK A01 T00800039  RH  075%=      5-min Rain = 0
KAM1 051809Z 02018KT 08/04 A3027 RMK A01 T00800039  RH  075%=      5-min Rain = 0
KAM1 051810Z 02017KT 08/04 A3027 RMK A01 T00800040  RH  076%=      5-min Rain = 0
KAM1 051811Z 01018KT 08/04 A3027 RMK A01 T00790041  RH  077%=      5-min Rain = 0
KAM1 051812Z 02017G22KT 08/04 A3027 RMK A01 T00790041  RH  077%=      5-min Rain = 0
KAM1 051813Z 01018KT 08/04 A3027 RMK A01 T00780042  RH  078%=      5-min Rain = 0
KAM1 051814Z 02018KT 08/04 A3027 RMK A01 T00770042  RH  078%=      5-min Rain = 0
KAM1 051815Z 02018KT 08/04 A3027 RMK A01 T00770043  RH  079%=      5-min Rain = 0
KAM1 051816Z 02017G23KT 08/04 A3027 RMK A01 T00760043  RH  079%=      5-min Rain = 0
KAM1 051817Z 02016KT 08/04 A3027 RMK A01 T00760044  RH  080%=      5-min Rain = 0
KAM1 051818Z 02017KT 08/05 A3027 RMK A01 T00760045  RH  081%=      5-min Rain = 0
KAM1 051819Z 02019KT 08/05 A3027 RMK A01 T00760045  RH  081%=      5-min Rain = 0
KAM1 051820Z 03016KT 08/05 A3027 RMK A01 T00760046  RH  081%=      5-min Rain = 0
KAM1 051821Z 02017KT 08/05 A3027 RMK A01 T00760046  RH  081%=      5-min Rain = 0
KAM1 051822Z 02014KT 08/05 A3027 RMK A01 T00750046  RH  082%=      5-min Rain = 0
KAM1 051823Z 02015KT 08/05 A3027 RMK A01 T00760046  RH  082%=      5-min Rain = 0
KAM1 051824Z 01013KT 08/05 A3027 RMK A01 T00760046  RH  081%=      5-min Rain = 0
KAM1 051825Z 01014KT 08/05 A3027 RMK A01 T00770047  RH  081%=      5-min Rain = 0
KAM1 051826Z 01013KT 08/05 A3027 RMK A01 T00770046  RH  081%=      5-min Rain = 0
KAM1 051827Z 01016KT 08/05 A3027 RMK A01 T00770047  RH  081%=      5-min Rain = 0
KAM1 051828Z 01017KT 08/05 A3027 RMK A01 T00760048  RH  082%=      5-min Rain = 0
KAM1 051829Z 01016KT 08/05 A3027 RMK A01 T00750049  RH  084%=      5-min Rain = 0
KAM1 051830Z 01014KT 07/05 A3027 RMK A01 T00740051  RH  085%=      5-min Rain = 0
KAM1 051831Z 36012KT 07/06 A3027 RMK A01 T00740056  RH  088%=      5-min Rain = 0
KAM1 051832Z 01013KT 07/06 A3027 RMK A01 T00730058  RH  090%=      5-min Rain = 0
KAM1 051833Z 01011KT 07/06 A3027 RMK A01 T00720059  RH  091%=      5-min Rain = 0
KAM1 051834Z 01012G17KT 07/06 A3027 RMK A01 T00720061  RH  093%=      5-min Rain = 0
KAM1 051835Z 01016KT 07/06 A3027 RMK A01 T00710061  RH  093%=      5-min Rain = 0
KAM1 051836Z 01013KT 07/06 A3027 RMK A01 T00710061  RH  093%=      5-min Rain = 0
KAM1 051837Z 36013KT 07/06 A3027 RMK A01 T00710062  RH  094%=      5-min Rain = 0
KAM1 051838Z 01013G18KT 07/06 A3028 RMK A01 T00710063  RH  095%=      5-min Rain = 0
KAM1 051839Z 01015KT 07/07 A3028 RMK A01 T00700065  RH  096%=      5-min Rain = 0
KAM1 051840Z 00015KT 07/07 A3028 RMK A01 T00690066  RH  098%=      5-min Rain = 0
KAM1 051841Z 36011KT 07/07 A3027 RMK A01 T00690066  RH  098%=      5-min Rain = 0
KAM1 051842Z 00013KT 07/07 A3028 RMK A01 T00690068  RH  100%=      5-min Rain = 0
KAM1 051843Z 00013KT 07/07 A3028 RMK A01 T00680068  RH  100%=      5-min Rain = 0
KAM1 051844Z 01012KT 07/07 A3028 RMK A01 T00690069  RH  100%=      5-min Rain = 0
KAM1 051845Z 00015KT 07/07 A3028 RMK A01 T00680068  RH  100%=      5-min Rain = 0
KAM1 051846Z 36014KT 07/07 A3028 RMK A01 T00690069  RH  100%=      5-min Rain = 0
KAM1 051847Z 00013KT 07/07 A3028 RMK A01 T00680068  RH  100%=      5-min Rain = 0
KAM1 051848Z 00013KT 07/07 A3028 RMK A01 T00690069  RH  100%=      5-min Rain = 0
KAM1 051849Z 00014KT 07/07 A3028 RMK A01 T00690068  RH  100%=      5-min Rain = 0
KAM1 051850Z 00014KT 07/07 A3028 RMK A01 T00680068  RH  100%=      5-min Rain = 0
KAM1 051851Z 01013KT 07/07 A3028 RMK A01 T00680068  RH  100%=      5-min Rain = 0
KAM1 051852Z 01013KT 07/07 A3028 RMK A01 T00680068  RH  100%=      5-min Rain = 0
KAM1 051853Z 01012KT 07/07 A3028 RMK A01 T00680068  RH  100%=      5-min Rain = 0
KAM1 051854Z 01015KT 07/07 A3028 RMK A01 T00680068  RH  100%=      5-min Rain = 0
KAM1 051855Z 01013KT 07/07 A3028 RMK A01 T00690069  RH  100%=      5-min Rain = 0
KAM1 051856Z 00013KT 07/07 A3027 RMK A01 T00710071  RH  100%=      5-min Rain = 0
KAM1 051857Z 00014KT 07/07 A3027 RMK A01 T00730073  RH  100%=      5-min Rain = 0
KAM1 051858Z 01013KT 07/07 A3027 RMK A01 T00740072  RH  099%=      5-min Rain = 0
KAM1 051859Z 01014KT 08/07 A3027 RMK A01 T00750073  RH  099%=      5-min Rain = 0
KAM1 051900Z 01015KT 08/07 A3027 RMK A01 T00750071  RH  097%=      5-min Rain = 0
KAM1 051901Z 36013KT 08/07 A3027 RMK A01 T00750069  RH  096%=      5-min Rain = 0
KAM1 051902Z 36012KT 08/07 A3027 RMK A01 T00760070  RH  096%=      5-min Rain = 0
KAM1 051903Z 01010KT 08/07 A3027 RMK A01 T00770071  RH  096%=      5-min Rain = 0
KAM1 051904Z 00010KT 08/07 A3027 RMK A01 T00790074  RH  096%=      5-min Rain = 0
KAM1 051905Z 35014KT 08/08 A3027 RMK A01 T00820075  RH  096%=      5-min Rain = 0
KAM1 051906Z 00013KT 08/07 A3027 RMK A01 T00830071  RH  093%=      5-min Rain = 0
KAM1 051907Z 36014KT 08/07 A3027 RMK A01 T00830070  RH  092%=      5-min Rain = 0
KAM1 051908Z 35012KT 08/07 A3027 RMK A01 T00830067  RH  090%=      5-min Rain = 0
KAM1 051909Z 36012KT 08/07 A3027 RMK A01 T00820065  RH  089%=      5-min Rain = 0
KAM1 051910Z 00014KT 08/06 A3027 RMK A01 T00820064  RH  089%=      5-min Rain = 0
KAM1 051911Z 00013KT 08/06 A3027 RMK A01 T00810062  RH  088%=      5-min Rain = 0
KAM1 051912Z 36010KT 08/06 A3027 RMK A01 T00800061  RH  088%=      5-min Rain = 0
KAM1 051913Z 36012KT 08/06 A3027 RMK A01 T00800062  RH  088%=      5-min Rain = 0
KAM1 051914Z 00014KT 08/06 A3027 RMK A01 T00810060  RH  087%=      5-min Rain = 0
KAM1 051915Z 00013KT 08/06 A3027 RMK A01 T00810060  RH  087%=      5-min Rain = 0
KAM1 051916Z 01014KT 08/06 A3027 RMK A01 T00810060  RH  086%=      5-min Rain = 0
KAM1 051917Z 02013KT 08/06 A3027 RMK A01 T00810059  RH  086%=      5-min Rain = 0
KAM1 051918Z 01009KT 08/06 A3027 RMK A01 T00820059  RH  086%=      5-min Rain = 0
KAM1 051919Z 36010KT 08/06 A3027 RMK A01 T00840062  RH  086%=      5-min Rain = 0
KAM1 051920Z 36012KT 08/06 A3027 RMK A01 T00840060  RH  085%=      5-min Rain = 0
KAM1 051921Z 36009KT 08/06 A3027 RMK A01 T00840060  RH  085%=      5-min Rain = 0
KAM1 051922Z 00014KT 08/06 A3027 RMK A01 T00840059  RH  084%=      5-min Rain = 0
KAM1 051923Z 01010KT 09/06 A3027 RMK A01 T00850058  RH  083%=      5-min Rain = 0
KAM1 051924Z 01011KT 09/06 A3027 RMK A01 T00850057  RH  083%=      5-min Rain = 0
KAM1 051925Z 01014KT 09/06 A3027 RMK A01 T00860056  RH  082%=      5-min Rain = 0
KAM1 051926Z 01014KT 09/06 A3027 RMK A01 T00870055  RH  080%=      5-min Rain = 0
KAM1 051927Z 01014KT 09/05 A3027 RMK A01 T00870051  RH  078%=      5-min Rain = 0
KAM1 051928Z 01014KT 09/05 A3027 RMK A01 T00880047  RH  075%=      5-min Rain = 0
KAM1 051929Z 02013KT 09/05 A3027 RMK A01 T00890045  RH  074%=      5-min Rain = 0
KAM1 051930Z 02015KT 09/04 A3027 RMK A01 T00890044  RH  074%=      5-min Rain = 0
KAM1 051931Z 02014KT 09/04 A3026 RMK A01 T00890044  RH  073%=      5-min Rain = 0
KAM1 051932Z 01013KT 09/04 A3026 RMK A01 T00890043  RH  073%=      5-min Rain = 0
KAM1 051933Z 01013KT 09/04 A3026 RMK A01 T00890043  RH  073%=      5-min Rain = 0
KAM1 051934Z 02013KT 09/04 A3026 RMK A01 T00890043  RH  073%=      5-min Rain = 0
KAM1 051935Z 01012KT 09/04 A3026 RMK A01 T00900043  RH  072%=      5-min Rain = 0
KAM1 051936Z 02013KT 09/04 A3026 RMK A01 T00900043  RH  072%=      5-min Rain = 0
KAM1 051937Z 02015KT 09/04 A3026 RMK A01 T00900043  RH  072%=      5-min Rain = 0
KAM1 051938Z 02015KT 09/04 A3026 RMK A01 T00920043  RH  071%=      5-min Rain = 0
KAM1 051939Z 01013KT 09/04 A3026 RMK A01 T00930042  RH  070%=      5-min Rain = 0
KAM1 051940Z 01015KT 09/04 A3026 RMK A01 T00940042  RH  070%=      5-min Rain = 0
KAM1 051941Z 01013KT 10/04 A3026 RMK A01 T00950042  RH  069%=      5-min Rain = 0
KAM1 051942Z 02015KT 10/04 A3026 RMK A01 T00960042  RH  069%=      5-min Rain = 0
KAM1 051943Z 03015KT 10/04 A3026 RMK A01 T00970041  RH  068%=      5-min Rain = 0
KAM1 051944Z 02015KT 10/04 A3026 RMK A01 T00970040  RH  068%=      5-min Rain = 0
KAM1 051945Z 03014KT 10/04 A3026 RMK A01 T00970040  RH  068%=      5-min Rain = 0
KAM1 051946Z 02016KT 10/04 A3026 RMK A01 T00980040  RH  067%=      5-min Rain = 0
KAM1 051947Z 02016KT 10/04 A3026 RMK A01 T00980040  RH  067%=      5-min Rain = 0
KAM1 051948Z 02018KT 10/04 A3026 RMK A01 T00990040  RH  067%=      5-min Rain = 0
KAM1 051949Z 03015G20KT 10/04 A3026 RMK A01 T00990039  RH  067%=      5-min Rain = 0
KAM1 051950Z 03017G22KT 10/04 A3026 RMK A01 T00990039  RH  066%=      5-min Rain = 0
KAM1 051951Z 02018KT 10/04 A3026 RMK A01 T00990039  RH  066%=      5-min Rain = 0
KAM1 051952Z 01017KT 10/04 A3025 RMK A01 T00980039  RH  067%=      5-min Rain = 0
KAM1 051953Z 02017KT 10/04 A3026 RMK A01 T00980038  RH  067%=      5-min Rain = 0
KAM1 051954Z 02016KT 10/04 A3026 RMK A01 T00970038  RH  067%=      5-min Rain = 0
KAM1 051955Z 02017KT 10/04 A3026 RMK A01 T00980039  RH  067%=      5-min Rain = 0
KAM1 051956Z 01017KT 10/04 A3026 RMK A01 T00980039  RH  067%=      5-min Rain = 0
KAM1 051957Z 01018KT 10/04 A3026 RMK A01 T00980039  RH  066%=      5-min Rain = 0
KAM1 051958Z 01016KT 10/04 A3026 RMK A01 T00980038  RH  066%=      5-min Rain = 0
KAM1 051959Z 02015KT 10/04 A3025 RMK A01 T00980038  RH  067%=      5-min Rain = 0
KAM1 052000Z 01015KT 10/04 A3026 RMK A01 T00980039  RH  067%=      5-min Rain = 0
KAM1 052001Z 01016KT 10/04 A3025 RMK A01 T00980038  RH  066%=      5-min Rain = 0
KAM1 052002Z 01015KT 10/04 A3025 RMK A01 T00980038  RH  066%=      5-min Rain = 0
KAM1 052003Z 01014KT 10/04 A3025 RMK A01 T00980038  RH  066%=      5-min Rain = 0
KAM1 052004Z 01014KT 10/04 A3026 RMK A01 T00980038  RH  066%=      5-min Rain = 0
KAM1 052005Z 01015KT 10/04 A3025 RMK A01 T00980038  RH  066%=      5-min Rain = 0
KAM1 052006Z 02017KT 10/04 A3026 RMK A01 T00980038  RH  066%=      5-min Rain = 0
KAM1 052007Z 02017KT 10/04 A3026 RMK A01 T00980037  RH  066%=      5-min Rain = 0
KAM1 052008Z 01020KT 10/04 A3026 RMK A01 T00970036  RH  066%=      5-min Rain = 0
KAM1 052009Z 02019KT 10/04 A3026 RMK A01 T00970036  RH  066%=      5-min Rain = 0
KAM1 052010Z 01019KT 10/04 A3026 RMK A01 T00970036  RH  066%=      5-min Rain = 0
KAM1 052011Z 01017KT 10/04 A3026 RMK A01 T00970036  RH  066%=      5-min Rain = 0
KAM1 052012Z 02014KT 10/04 A3026 RMK A01 T00970037  RH  066%=      5-min Rain = 0
KAM1 052013Z 02015KT 10/04 A3026 RMK A01 T00980037  RH  066%=      5-min Rain = 0
KAM1 052014Z 02013KT 10/04 A3026 RMK A01 T00980038  RH  066%=      5-min Rain = 0
KAM1 052015Z 02016KT 10/04 A3026 RMK A01 T00990038  RH  066%=      5-min Rain = 0
KAM1 052016Z 02015G21KT 10/04 A3026 RMK A01 T00990037  RH  066%=      5-min Rain = 0
KAM1 052017Z 02016KT 10/04 A3026 RMK A01 T00980037  RH  066%=      5-min Rain = 0
KAM1 052018Z 03013KT 10/04 A3026 RMK A01 T00970037  RH  066%=      5-min Rain = 0
KAM1 052019Z 03013KT 10/04 A3026 RMK A01 T00970037  RH  066%=      5-min Rain = 0
KAM1 052020Z 03014KT 10/04 A3026 RMK A01 T00970037  RH  066%=      5-min Rain = 0
KAM1 052021Z 03016KT 10/04 A3026 RMK A01 T00970038  RH  066%=      5-min Rain = 0
KAM1 052022Z 03015KT 10/04 A3026 RMK A01 T00970038  RH  066%=      5-min Rain = 0
KAM1 052023Z 03014KT 10/04 A3026 RMK A01 T00980038  RH  066%=      5-min Rain = 0
KAM1 052024Z 04016KT 10/04 A3026 RMK A01 T00970038  RH  067%=      5-min Rain = 0
KAM1 052025Z 03016G21KT 10/04 A3026 RMK A01 T00970039  RH  067%=      5-min Rain = 0
KAM1 052026Z 03015KT 10/04 A3026 RMK A01 T00980040  RH  067%=      5-min Rain = 0
KAM1 052027Z 03015KT 10/04 A3026 RMK A01 T00980041  RH  067%=      5-min Rain = 0
KAM1 052028Z 04016KT 10/04 A3026 RMK A01 T00990042  RH  067%=      5-min Rain = 0
KAM1 052029Z 04016KT 10/04 A3026 RMK A01 T01000042  RH  067%=      5-min Rain = 0
KAM1 052030Z 04016KT 10/04 A3026 RMK A01 T01010043  RH  067%=      5-min Rain = 0
KAM1 052031Z 04015KT 10/04 A3026 RMK A01 T01020043  RH  067%=      5-min Rain = 0
KAM1 052032Z 03016KT 10/05 A3026 RMK A01 T01040045  RH  067%=      5-min Rain = 0
KAM1 052033Z 03017KT 11/04 A3026 RMK A01 T01050044  RH  066%=      5-min Rain = 0
KAM1 052034Z 03018KT 11/04 A3026 RMK A01 T01050043  RH  066%=      5-min Rain = 0
KAM1 052035Z 02017KT 11/04 A3026 RMK A01 T01050043  RH  066%=      5-min Rain = 0
KAM1 052036Z 03015G20KT 11/04 A3026 RMK A01 T01050043  RH  065%=      5-min Rain = 0
KAM1 052037Z 03019KT 11/04 A3026 RMK A01 T01060042  RH  065%=      5-min Rain = 0
KAM1 052038Z 03018KT 11/04 A3026 RMK A01 T01060041  RH  064%=      5-min Rain = 0
KAM1 052039Z 03017KT 11/04 A3025 RMK A01 T01050041  RH  064%=      5-min Rain = 0
KAM1 052040Z 02018KT 11/04 A3025 RMK A01 T01050040  RH  064%=      5-min Rain = 0
KAM1 052041Z 02016KT 11/04 A3025 RMK A01 T01070042  RH  064%=      5-min Rain = 0
KAM1 052042Z 03015KT 11/05 A3025 RMK A01 T01120046  RH  064%=      5-min Rain = 0
KAM1 052043Z 03017KT 11/05 A3025 RMK A01 T01140047  RH  063%=      5-min Rain = 0
KAM1 052044Z 03017KT 12/04 A3025 RMK A01 T01150044  RH  062%=      5-min Rain = 0
KAM1 052045Z 03018KT 12/04 A3026 RMK A01 T01150042  RH  061%=      5-min Rain = 0
KAM1 052046Z 02017KT 11/04 A3025 RMK A01 T01140038  RH  059%=      5-min Rain = 0
KAM1 052047Z 02018G24KT 11/04 A3025 RMK A01 T01130037  RH  059%=      5-min Rain = 0
KAM1 052048Z 03017KT 11/04 A3025 RMK A01 T01130036  RH  059%=      5-min Rain = 0
KAM1 052049Z 04017G22KT 11/04 A3025 RMK A01 T01130036  RH  059%=      5-min Rain = 0
KAM1 052050Z 02017KT 11/04 A3025 RMK A01 T01120037  RH  060%=      5-min Rain = 0
KAM1 052051Z 02016KT 11/04 A3025 RMK A01 T01140039  RH  060%=      5-min Rain = 0
KAM1 052052Z 02019KT 12/04 A3025 RMK A01 T01180040  RH  059%=      5-min Rain = 0
KAM1 052053Z 02018KT 12/04 A3025 RMK A01 T01230042  RH  058%=      5-min Rain = 0
KAM1 052054Z 03014KT 13/04 A3025 RMK A01 T01260043  RH  057%=      5-min Rain = 0
KAM1 052055Z 03014G19KT 13/04 A3025 RMK A01 T01280044  RH  057%=      5-min Rain = 0
KAM1 052056Z 03021KT 13/04 A3025 RMK A01 T01300040  RH  054%=      5-min Rain = 0
KAM1 052057Z 02020KT 13/03 A3026 RMK A01 T01270032  RH  053%=      5-min Rain = 0
KAM1 052058Z 02019G25KT 12/03 A3025 RMK A01 T01240030  RH  053%=      5-min Rain = 0
KAM1 052059Z 02023KT 13/03 A3025 RMK A01 T01250030  RH  053%=      5-min Rain = 0
KAM1 052100Z 01021KT 13/03 A3025 RMK A01 T01250031  RH  052%=      5-min Rain = 0
KAM1 052101Z 02019KT 13/03 A3025 RMK A01 T01270032  RH  052%=      5-min Rain = 0
KAM1 052102Z 02017KT 13/03 A3025 RMK A01 T01280033  RH  052%=      5-min Rain = 0
KAM1 052103Z 03018KT 13/03 A3026 RMK A01 T01280032  RH  052%=      5-min Rain = 0
KAM1 052104Z 03016KT 13/03 A3026 RMK A01 T01280031  RH  052%=      5-min Rain = 0
KAM1 052105Z 02018KT 13/03 A3026 RMK A01 T01270029  RH  051%=      5-min Rain = 0
KAM1 052106Z 03016KT 12/03 A3026 RMK A01 T01240029  RH  052%=      5-min Rain = 0
KAM1 052107Z 03016KT 13/03 A3026 RMK A01 T01260032  RH  053%=      5-min Rain = 0
KAM1 052108Z 03015KT 13/03 A3026 RMK A01 T01290032  RH  052%=      5-min Rain = 0
KAM1 052109Z 03017KT 13/03 A3026 RMK A01 T01290032  RH  052%=      5-min Rain = 0
KAM1 052110Z 02020KT 13/03 A3026 RMK A01 T01320031  RH  050%=      5-min Rain = 0
KAM1 052111Z 02023KT 13/03 A3026 RMK A01 T01340028  RH  049%=      5-min Rain = 0
KAM1 052112Z 01019KT 13/03 A3025 RMK A01 T01340027  RH  048%=      5-min Rain = 0
KAM1 052113Z 02015G20KT 13/03 A3025 RMK A01 T01340029  RH  049%=      5-min Rain = 0
KAM1 052114Z 02016G21KT 14/03 A3025 RMK A01 T01350028  RH  048%=      5-min Rain = 0
KAM1 052115Z 03018KT 13/03 A3025 RMK A01 T01340026  RH  048%=      5-min Rain = 0
KAM1 052116Z 04018KT 14/03 A3026 RMK A01 T01350028  RH  048%=      5-min Rain = 0
KAM1 052117Z 04019KT 13/02 A3025 RMK A01 T01340024  RH  047%=      5-min Rain = 0
KAM1 052118Z 02018KT 13/02 A3025 RMK A01 T01290024  RH  049%=      5-min Rain = 0
KAM1 052119Z 02019G24KT 13/03 A3026 RMK A01 T01310026  RH  049%=      5-min Rain = 0
KAM1 052120Z 01018KT 13/02 A3025 RMK A01 T01300024  RH  049%=      5-min Rain = 0
KAM1 052121Z 02015KT 13/02 A3025 RMK A01 T01270024  RH  049%=      5-min Rain = 0
KAM1 052122Z 03022KT 13/02 A3026 RMK A01 T01270024  RH  050%=      5-min Rain = 0
KAM1 052123Z 03019KT 13/02 A3026 RMK A01 T01260020  RH  049%=      5-min Rain = 0
KAM1 052124Z 03020G25KT 13/02 A3026 RMK A01 T01250019  RH  049%=      5-min Rain = 0
KAM1 052125Z 02021KT 12/02 A3026 RMK A01 T01230019  RH  049%=      5-min Rain = 0
KAM1 052126Z 02018KT 12/02 A3026 RMK A01 T01220020  RH  050%=      5-min Rain = 0
KAM1 052127Z 02019G24KT 12/02 A3026 RMK A01 T01220020  RH  050%=      5-min Rain = 0
KAM1 052128Z 02015KT 12/02 A3026 RMK A01 T01220021  RH  050%=      5-min Rain = 0
KAM1 052129Z 02019G24KT 12/02 A3026 RMK A01 T01240023  RH  050%=      5-min Rain = 0
KAM1 052130Z 02017G22KT 13/02 A3026 RMK A01 T01250022  RH  050%=      5-min Rain = 0
KAM1 052131Z 01021KT 13/02 A3026 RMK A01 T01250022  RH  050%=      5-min Rain = 0
KAM1 052132Z 01019KT 13/02 A3026 RMK A01 T01250023  RH  050%=      5-min Rain = 0
KAM1 052133Z 02019KT 13/02 A3026 RMK A01 T01250022  RH  050%=      5-min Rain = 0
KAM1 052134Z 01016KT 13/03 A3026 RMK A01 T01250025  RH  050%=      5-min Rain = 0
KAM1 052135Z 01017KT 13/03 A3026 RMK A01 T01300027  RH  050%=      5-min Rain = 0
KAM1 052136Z 02016G24KT 13/03 A3026 RMK A01 T01320025  RH  048%=      5-min Rain = 0
KAM1 052137Z 01020KT 13/02 A3026 RMK A01 T01300024  RH  049%=      5-min Rain = 0
KAM1 052138Z 01018KT 13/02 A3026 RMK A01 T01270023  RH  049%=      5-min Rain = 0
KAM1 052139Z 00017KT 13/03 A3026 RMK A01 T01270025  RH  050%=      5-min Rain = 0
KAM1 052140Z 00015KT 13/03 A3026 RMK A01 T01270026  RH  050%=      5-min Rain = 0
KAM1 052141Z 00017KT 13/03 A3026 RMK A01 T01320028  RH  050%=      5-min Rain = 0
KAM1 052142Z 00016KT 13/03 A3026 RMK A01 T01330027  RH  048%=      5-min Rain = 0
KAM1 052143Z 01017KT 13/03 A3026 RMK A01 T01330026  RH  048%=      5-min Rain = 0
KAM1 052144Z 01018KT 13/03 A3026 RMK A01 T01320027  RH  049%=      5-min Rain = 0
KAM1 052145Z 01015KT 13/03 A3026 RMK A01 T01300025  RH  049%=      5-min Rain = 0
KAM1 052146Z 02012G17KT 13/03 A3026 RMK A01 T01280026  RH  050%=      5-min Rain = 0
KAM1 052147Z 02015KT 13/03 A3026 RMK A01 T01310028  RH  050%=      5-min Rain = 0
KAM1 052148Z 01020KT 13/03 A3026 RMK A01 T01340028  RH  049%=      5-min Rain = 0
KAM1 052149Z 01017KT 13/03 A3026 RMK A01 T01340027  RH  048%=      5-min Rain = 0
KAM1 052150Z 02018KT 13/03 A3026 RMK A01 T01340027  RH  048%=      5-min Rain = 0
KAM1 052151Z 01019KT 13/03 A3026 RMK A01 T01340027  RH  048%=      5-min Rain = 0
KAM1 052152Z 02020KT 14/03 A3026 RMK A01 T01350027  RH  048%=      5-min Rain = 0
KAM1 052153Z 02020KT 14/03 A3026 RMK A01 T01360026  RH  048%=      5-min Rain = 0
KAM1 052154Z 03017KT 13/02 A3026 RMK A01 T01330024  RH  047%=      5-min Rain = 0
KAM1 052155Z 03017KT 13/02 A3026 RMK A01 T01290024  RH  049%=      5-min Rain = 0
KAM1 052156Z 01019KT 13/03 A3026 RMK A01 T01300028  RH  050%=      5-min Rain = 0
KAM1 052157Z 00017KT 13/03 A3026 RMK A01 T01340028  RH  049%=      5-min Rain = 0
KAM1 052158Z 36016KT 14/03 A3026 RMK A01 T01350028  RH  048%=      5-min Rain = 0
KAM1 052159Z 36014KT 14/03 A3026 RMK A01 T01370028  RH  048%=      5-min Rain = 0
KAM1 052200Z 36015KT 14/03 A3026 RMK A01 T01380028  RH  047%=      5-min Rain = 0
KAM1 052201Z 01015KT 14/03 A3026 RMK A01 T01400027  RH  047%=      5-min Rain = 0
KAM1 052202Z 02015KT 14/03 A3026 RMK A01 T01390028  RH  047%=      5-min Rain = 0
KAM1 052203Z 01013KT 14/03 A3026 RMK A01 T01430031  RH  047%=      5-min Rain = 0
KAM1 052204Z 35017G22KT 15/03 A3026 RMK A01 T01450028  RH  045%=      5-min Rain = 0
KAM1 052205Z 00019KT 14/02 A3026 RMK A01 T01400024  RH  045%=      5-min Rain = 0
KAM1 052206Z 00018KT 13/02 A3026 RMK A01 T01340022  RH  046%=      5-min Rain = 0
KAM1 052207Z 00015KT 13/02 A3026 RMK A01 T01300022  RH  048%=      5-min Rain = 0
KAM1 052208Z 00017KT 13/03 A3026 RMK A01 T01300025  RH  049%=      5-min Rain = 0
KAM1 052209Z 00015KT 13/03 A3026 RMK A01 T01320025  RH  048%=      5-min Rain = 0
KAM1 052210Z 35014KT 13/03 A3026 RMK A01 T01330026  RH  048%=      5-min Rain = 0
KAM1 052211Z 35014KT 13/03 A3026 RMK A01 T01330026  RH  048%=      5-min Rain = 0
KAM1 052212Z 01016KT 14/03 A3026 RMK A01 T01350028  RH  048%=      5-min Rain = 0
KAM1 052213Z 01017KT 14/03 A3026 RMK A01 T01370027  RH  047%=      5-min Rain = 0
KAM1 052214Z 01015KT 14/03 A3026 RMK A01 T01390028  RH  047%=      5-min Rain = 0
KAM1 052215Z 00016KT 14/03 A3026 RMK A01 T01420031  RH  047%=      5-min Rain = 0
KAM1 052216Z 00018KT 15/03 A3026 RMK A01 T01450030  RH  046%=      5-min Rain = 0
KAM1 052217Z 35016KT 15/03 A3026 RMK A01 T01460030  RH  046%=      5-min Rain = 0
KAM1 052218Z 35012KT 15/03 A3026 RMK A01 T01460030  RH  046%=      5-min Rain = 0
KAM1 052219Z 35018KT 15/03 A3026 RMK A01 T01490031  RH  045%=      5-min Rain = 0
KAM1 052220Z 35016KT 15/03 A3026 RMK A01 T01450027  RH  045%=      5-min Rain = 0
KAM1 052221Z 35017KT 14/03 A3026 RMK A01 T01440028  RH  046%=      5-min Rain = 0
KAM1 052222Z 36014KT 14/03 A3026 RMK A01 T01440029  RH  046%=      5-min Rain = 0
KAM1 052223Z 35015G20KT 14/03 A3026 RMK A01 T01440029  RH  046%=      5-min Rain = 0
KAM1 052224Z 35017KT 14/03 A3026 RMK A01 T01400026  RH  046%=      5-min Rain = 0
KAM1 052225Z 35016KT 14/03 A3026 RMK A01 T01370026  RH  047%=      5-min Rain = 0
KAM1 052226Z 36016KT 14/03 A3026 RMK A01 T01370027  RH  048%=      5-min Rain = 0
KAM1 052227Z 00015KT 14/03 A3026 RMK A01 T01380028  RH  047%=      5-min Rain = 0
KAM1 052228Z 01017KT 14/03 A3026 RMK A01 T01380028  RH  047%=      5-min Rain = 0
KAM1 052229Z 02017G22KT 14/03 A3026 RMK A01 T01380027  RH  047%=      5-min Rain = 0
KAM1 052230Z 02020KT 14/03 A3027 RMK A01 T01390026  RH  046%=      5-min Rain = 0
KAM1 052231Z 02019KT 14/03 A3026 RMK A01 T01390025  RH  046%=      5-min Rain = 0
KAM1 052232Z 02019KT 14/02 A3026 RMK A01 T01370023  RH  046%=      5-min Rain = 0
KAM1 052233Z 02019KT 13/02 A3027 RMK A01 T01330021  RH  047%=      5-min Rain = 0
KAM1 052234Z 02016KT 13/02 A3027 RMK A01 T01300022  RH  048%=      5-min Rain = 0
KAM1 052235Z 01017KT 13/02 A3026 RMK A01 T01290023  RH  048%=      5-min Rain = 0
KAM1 052236Z 01015KT 13/02 A3026 RMK A01 T01270021  RH  049%=      5-min Rain = 0
KAM1 052237Z 01013G18KT 13/02 A3026 RMK A01 T01260021  RH  049%=      5-min Rain = 0
KAM1 052238Z 01012KT 13/02 A3026 RMK A01 T01250021  RH  049%=      5-min Rain = 0
KAM1 052239Z 01014KT 13/02 A3026 RMK A01 T01250022  RH  049%=      5-min Rain = 0
KAM1 052240Z 00015G20KT 13/02 A3026 RMK A01 T01250023  RH  050%=      5-min Rain = 0
KAM1 052241Z 35015KT 13/02 A3026 RMK A01 T01270024  RH  049%=      5-min Rain = 0
KAM1 052242Z 36013KT 13/03 A3026 RMK A01 T01310026  RH  049%=      5-min Rain = 0
KAM1 052243Z 01015KT 13/02 A3026 RMK A01 T01340024  RH  047%=      5-min Rain = 0
KAM1 052244Z 36016KT 14/02 A3026 RMK A01 T01350023  RH  047%=      5-min Rain = 0
KAM1 052245Z 36015KT 14/02 A3026 RMK A01 T01360024  RH  046%=      5-min Rain = 0
KAM1 052246Z 35014KT 14/02 A3026 RMK A01 T01380024  RH  046%=      5-min Rain = 0
KAM1 052247Z 36013KT 14/02 A3026 RMK A01 T01390024  RH  046%=      5-min Rain = 0
KAM1 052248Z 36017KT 14/02 A3026 RMK A01 T01400024  RH  046%=      5-min Rain = 0
KAM1 052249Z 00014G19KT 14/02 A3026 RMK A01 T01400024  RH  045%=      5-min Rain = 0
KAM1 052250Z 35015KT 14/02 A3026 RMK A01 T01390024  RH  045%=      5-min Rain = 0
KAM1 052251Z 00015KT 14/03 A3027 RMK A01 T01390025  RH  046%=      5-min Rain = 0
KAM1 052252Z 36013G19KT 14/03 A3027 RMK A01 T01400025  RH  046%=      5-min Rain = 0
KAM1 052253Z 36018KT 14/02 A3027 RMK A01 T01410024  RH  045%=      5-min Rain = 0
KAM1 052254Z 00017KT 14/02 A3027 RMK A01 T01410022  RH  044%=      5-min Rain = 0
KAM1 052255Z 36016KT 14/02 A3027 RMK A01 T01390023  RH  045%=      5-min Rain = 0
KAM1 052256Z 00014KT 14/02 A3027 RMK A01 T01380023  RH  046%=      5-min Rain = 0
KAM1 052257Z 00019KT 14/02 A3027 RMK A01 T01370023  RH  046%=      5-min Rain = 0
KAM1 052258Z 00018KT 14/02 A3027 RMK A01 T01350023  RH  047%=      5-min Rain = 0
KAM1 052259Z 00017KT 13/02 A3027 RMK A01 T01340023  RH  047%=      5-min Rain = 0
KAM1 052300Z 00017KT 13/02 A3027 RMK A01 T01340023  RH  047%=      5-min Rain = 0
KAM1 052301Z 35016KT 13/03 A3026 RMK A01 T01340025  RH  047%=      5-min Rain = 0
KAM1 052302Z 36013KT 14/03 A3026 RMK A01 T01350026  RH  048%=      5-min Rain = 0
KAM1 052303Z 36015KT 14/03 A3026 RMK A01 T01360027  RH  048%=      5-min Rain = 0
KAM1 052304Z 35016KT 14/03 A3026 RMK A01 T01370026  RH  047%=      5-min Rain = 0
KAM1 052305Z 35017KT 14/03 A3026 RMK A01 T01350026  RH  047%=      5-min Rain = 0
KAM1 052306Z 35016KT 13/03 A3026 RMK A01 T01330026  RH  048%=      5-min Rain = 0
KAM1 052307Z 36018KT 13/03 A3026 RMK A01 T01320027  RH  049%=      5-min Rain = 0
KAM1 052308Z 35016KT 13/03 A3026 RMK A01 T01320028  RH  049%=      5-min Rain = 0
KAM1 052309Z 35016KT 13/03 A3026 RMK A01 T01320029  RH  050%=      5-min Rain = 0
KAM1 052310Z 34014KT 13/03 A3026 RMK A01 T01320030  RH  050%=      5-min Rain = 0
KAM1 052311Z 36013KT 13/03 A3026 RMK A01 T01320030  RH  050%=      5-min Rain = 0
KAM1 052312Z 35015KT 13/03 A3026 RMK A01 T01330032  RH  051%=      5-min Rain = 0
KAM1 052313Z 36016KT 13/03 A3026 RMK A01 T01340032  RH  050%=      5-min Rain = 0
KAM1 052314Z 35016KT 13/03 A3026 RMK A01 T01330030  RH  050%=      5-min Rain = 0
KAM1 052315Z 00013KT 13/03 A3026 RMK A01 T01320029  RH  050%=      5-min Rain = 0
KAM1 052316Z 36012KT 13/03 A3026 RMK A01 T01310030  RH  050%=      5-min Rain = 0
KAM1 052317Z 36012KT 13/03 A3026 RMK A01 T01320031  RH  050%=      5-min Rain = 0
KAM1 052318Z 35012G17KT 13/03 A3026 RMK A01 T01330030  RH  050%=      5-min Rain = 0
KAM1 052319Z 01015KT 13/03 A3026 RMK A01 T01330029  RH  049%=      5-min Rain = 0
KAM1 052320Z 00013KT 13/03 A3026 RMK A01 T01330028  RH  049%=      5-min Rain = 0
KAM1 052321Z 00014KT 13/03 A3026 RMK A01 T01320027  RH  049%=      5-min Rain = 0
KAM1 052322Z 00012KT 13/03 A3026 RMK A01 T01320028  RH  049%=      5-min Rain = 0
KAM1 052323Z 36011KT 13/03 A3026 RMK A01 T01320027  RH  049%=      5-min Rain = 0
KAM1 052324Z 35013KT 13/03 A3026 RMK A01 T01320027  RH  049%=      5-min Rain = 0
KAM1 052325Z 35011KT 13/03 A3026 RMK A01 T01320026  RH  049%=      5-min Rain = 0
KAM1 052326Z 36013KT 13/03 A3026 RMK A01 T01330027  RH  049%=      5-min Rain = 0
KAM1 052327Z 36011KT 13/03 A3026 RMK A01 T01330028  RH  049%=      5-min Rain = 0
KAM1 052328Z 35013KT 13/03 A3026 RMK A01 T01330028  RH  049%=      5-min Rain = 0
KAM1 052329Z 01014G19KT 13/03 A3027 RMK A01 T01330026  RH  048%=      5-min Rain = 0
KAM1 052330Z 01016KT 13/02 A3027 RMK A01 T01320023  RH  047%=      5-min Rain = 0
KAM1 052331Z 01014KT 13/02 A3027 RMK A01 T01290022  RH  048%=      5-min Rain = 0
KAM1 052332Z 01013KT 13/02 A3027 RMK A01 T01270022  RH  049%=      5-min Rain = 0
KAM1 052333Z 36013KT 13/02 A3027 RMK A01 T01270023  RH  049%=      5-min Rain = 0
KAM1 052334Z 36013KT 13/02 A3027 RMK A01 T01280024  RH  049%=      5-min Rain = 0
KAM1 052335Z 01013KT 13/02 A3026 RMK A01 T01290023  RH  049%=      5-min Rain = 0
KAM1 052336Z 36014KT 13/02 A3026 RMK A01 T01290023  RH  048%=      5-min Rain = 0
KAM1 052337Z 35016KT 13/02 A3026 RMK A01 T01300022  RH  048%=      5-min Rain = 0
KAM1 052338Z 36013KT 13/02 A3026 RMK A01 T01300021  RH  047%=      5-min Rain = 0
KAM1 052339Z 00013KT 13/02 A3027 RMK A01 T01300020  RH  047%=      5-min Rain = 0
KAM1 052340Z 00013KT 13/02 A3027 RMK A01 T01310019  RH  047%=      5-min Rain = 0
KAM1 052341Z 00013KT 13/02 A3027 RMK A01 T01310019  RH  047%=      5-min Rain = 0
KAM1 052342Z 01013KT 13/02 A3027 RMK A01 T01300019  RH  047%=      5-min Rain = 0
KAM1 052343Z 01013KT 13/02 A3027 RMK A01 T01300019  RH  047%=      5-min Rain = 0
KAM1 052344Z 01012KT 13/02 A3027 RMK A01 T01300019  RH  047%=      5-min Rain = 0
KAM1 052345Z 01012KT 13/02 A3027 RMK A01 T01300019  RH  047%=      5-min Rain = 0
KAM1 052346Z 01012KT 13/02 A3027 RMK A01 T01300019  RH  047%=      5-min Rain = 0
KAM1 052347Z 36012G17KT 13/02 A3027 RMK A01 T01300019  RH  047%=      5-min Rain = 0
KAM1 052348Z 01013KT 13/02 A3027 RMK A01 T01300020  RH  047%=      5-min Rain = 0
KAM1 052349Z 01014KT 13/02 A3027 RMK A01 T01300020  RH  047%=      5-min Rain = 0
KAM1 052350Z 01011KT 13/02 A3027 RMK A01 T01300019  RH  047%=      5-min Rain = 0
KAM1 052351Z 01011KT 13/02 A3027 RMK A01 T01290020  RH  047%=      5-min Rain = 0
KAM1 052352Z 01012KT 13/02 A3027 RMK A01 T01290020  RH  047%=      5-min Rain = 0
KAM1 052353Z 01010KT 13/02 A3027 RMK A01 T01290020  RH  048%=      5-min Rain = 0
KAM1 052354Z 02012KT 13/02 A3027 RMK A01 T01280020  RH  048%=      5-min Rain = 0
KAM1 052355Z 01012KT 13/02 A3027 RMK A01 T01290020  RH  048%=      5-min Rain = 0
KAM1 052356Z 01013KT 13/02 A3027 RMK A01 T01280020  RH  048%=      5-min Rain = 0
KAM1 052357Z 01013KT 13/02 A3027 RMK A01 T01280020  RH  048%=      5-min Rain = 0
KAM1 052358Z 02013KT 13/02 A3027 RMK A01 T01280020  RH  048%=      5-min Rain = 0
KAM1 052359Z 02014KT 13/02 A3027 RMK A01 T01270020  RH  048%=      5-min Rain = 0
KAM1 060000Z 01012KT 13/02 A3027 RMK A01 T01270021  RH  048%=      5-min Rain = 0
KAM1 060001Z 01010KT 13/02 A3027 RMK A01 T01270021  RH  048%=      5-min Rain = 0
KAM1 060002Z 01010KT 13/02 A3027 RMK A01 T01270021  RH  049%=      5-min Rain = 0
KAM1 060003Z 00010KT 13/02 A3027 RMK A01 T01270021  RH  049%=      5-min Rain = 0
KAM1 060004Z 00013KT 13/02 A3027 RMK A01 T01260020  RH  048%=      5-min Rain = 0
KAM1 060005Z 01013KT 13/02 A3027 RMK A01 T01260020  RH  048%=      5-min Rain = 0
KAM1 060006Z 01013KT 13/02 A3027 RMK A01 T01260020  RH  048%=      5-min Rain = 0
KAM1 060007Z 01012KT 13/02 A3027 RMK A01 T01250020  RH  049%=      5-min Rain = 0
KAM1 060008Z 00013KT 13/02 A3027 RMK A01 T01250020  RH  049%=      5-min Rain = 0
KAM1 060009Z 01012KT 13/02 A3027 RMK A01 T01250020  RH  049%=      5-min Rain = 0
KAM1 060010Z 01011KT 12/02 A3027 RMK A01 T01240020  RH  049%=      5-min Rain = 0
KAM1 060011Z 01011KT 12/02 A3027 RMK A01 T01240020  RH  049%=      5-min Rain = 0
KAM1 060012Z 01010KT 12/02 A3027 RMK A01 T01240019  RH  049%=      5-min Rain = 0
KAM1 060013Z 01010KT 12/02 A3027 RMK A01 T01230019  RH  049%=      5-min Rain = 0
KAM1 060014Z 01010KT 12/02 A3027 RMK A01 T01220018  RH  049%=      5-min Rain = 0
KAM1 060015Z 00012KT 12/02 A3027 RMK A01 T01220017  RH  049%=      5-min Rain = 0
KAM1 060016Z 01011KT 12/02 A3027 RMK A01 T01220015  RH  048%=      5-min Rain = 0
KAM1 060017Z 01011KT 12/01 A3027 RMK A01 T01210014  RH  048%=      5-min Rain = 0
KAM1 060018Z 01012KT 12/01 A3027 RMK A01 T01210013  RH  048%=      5-min Rain = 0
KAM1 060019Z 01012KT 12/01 A3027 RMK A01 T01200013  RH  048%=      5-min Rain = 0
KAM1 060020Z 01011KT 12/01 A3027 RMK A01 T01200013  RH  048%=      5-min Rain = 0
KAM1 060021Z 01011KT 12/01 A3027 RMK A01 T01190013  RH  048%=      5-min Rain = 0
KAM1 060022Z 01010KT 12/01 A3027 RMK A01 T01190013  RH  048%=      5-min Rain = 0
KAM1 060023Z 01010KT 12/01 A3027 RMK A01 T01180013  RH  048%=      5-min Rain = 0
KAM1 060024Z 01011KT 12/01 A3027 RMK A01 T01180013  RH  049%=      5-min Rain = 0
KAM1 060025Z 00009KT 12/01 A3027 RMK A01 T01170013  RH  049%=      5-min Rain = 0
KAM1 060026Z 01010KT 12/01 A3027 RMK A01 T01160013  RH  049%=      5-min Rain = 0
KAM1 060027Z 01010KT 12/01 A3028 RMK A01 T01150013  RH  049%=      5-min Rain = 0
KAM1 060028Z 01009KT 12/01 A3028 RMK A01 T01150013  RH  050%=      5-min Rain = 0
KAM1 060029Z 01010KT 11/01 A3028 RMK A01 T01140013  RH  050%=      5-min Rain = 0
KAM1 060030Z 01009KT 11/01 A3028 RMK A01 T01140014  RH  050%=      5-min Rain = 0
KAM1 060031Z 01009KT 11/01 A3028 RMK A01 T01120013  RH  050%=      5-min Rain = 0
KAM1 060032Z 00009KT 11/01 A3028 RMK A01 T01120014  RH  051%=      5-min Rain = 0
KAM1 060033Z 00008KT 11/01 A3028 RMK A01 T01110014  RH  051%=      5-min Rain = 0
KAM1 060034Z 00008KT 11/01 A3028 RMK A01 T01110014  RH  051%=      5-min Rain = 0
KAM1 060035Z 01008KT 11/01 A3028 RMK A01 T01100014  RH  051%=      5-min Rain = 0
KAM1 060036Z 01008KT 11/01 A3028 RMK A01 T01090014  RH  052%=      5-min Rain = 0
KAM1 060037Z 01008KT 11/01 A3028 RMK A01 T01090013  RH  052%=      5-min Rain = 0
KAM1 060038Z 00007KT 11/01 A3028 RMK A01 T01080013  RH  052%=      5-min Rain = 0
KAM1 060039Z 01007KT 11/01 A3028 RMK A01 T01070013  RH  052%=      5-min Rain = 0
KAM1 060040Z 00006KT 11/01 A3028 RMK A01 T01050012  RH  052%=      5-min Rain = 0
KAM1 060041Z 00007KT 10/01 A3028 RMK A01 T01040011  RH  053%=      5-min Rain = 0
KAM1 060042Z 36007KT 10/01 A3028 RMK A01 T01030011  RH  053%=      5-min Rain = 0
KAM1 060043Z 36006KT 10/01 A3028 RMK A01 T01020011  RH  053%=      5-min Rain = 0
KAM1 060044Z 36007KT 10/01 A3028 RMK A01 T01010011  RH  054%=      5-min Rain = 0
KAM1 060045Z 36007KT 10/01 A3028 RMK A01 T01000011  RH  054%=      5-min Rain = 0
KAM1 060046Z 36007KT 10/01 A3028 RMK A01 T00990010  RH  054%=      5-min Rain = 0
KAM1 060047Z 36007KT 10/01 A3028 RMK A01 T00980011  RH  054%=      5-min Rain = 0
KAM1 060048Z 36006KT 10/01 A3028 RMK A01 T00980010  RH  055%=      5-min Rain = 0
KAM1 060049Z 36006KT 10/01 A3028 RMK A01 T00970010  RH  055%=      5-min Rain = 0
KAM1 060050Z 35006KT 10/01 A3028 RMK A01 T00950009  RH  055%=      5-min Rain = 0
KAM1 060051Z 35007KT 09/01 A3028 RMK A01 T00940008  RH  055%=      5-min Rain = 0
KAM1 060052Z 35006KT 09/01 A3028 RMK A01 T00920008  RH  056%=      5-min Rain = 0
KAM1 060053Z 35007KT 09/01 A3028 RMK A01 T00910008  RH  056%=      5-min Rain = 0
KAM1 060054Z 35007KT 09/01 A3028 RMK A01 T00900008  RH  056%=      5-min Rain = 0
KAM1 060055Z 35007KT 09/01 A3028 RMK A01 T00890008  RH  057%=      5-min Rain = 0
KAM1 060056Z 34007KT 09/01 A3028 RMK A01 T00890008  RH  057%=      5-min Rain = 0
KAM1 060057Z 35007KT 09/01 A3028 RMK A01 T00880008  RH  057%=      5-min Rain = 0
KAM1 060058Z 35008KT 09/01 A3028 RMK A01 T00870008  RH  058%=      5-min Rain = 0
KAM1 060059Z 35008KT 09/01 A3028 RMK A01 T00860007  RH  058%=      5-min Rain = 0
KAM1 060100Z 35008KT 08/01 A3028 RMK A01 T00840007  RH  058%=      5-min Rain = 0
KAM1 060101Z 35008KT 08/01 A3028 RMK A01 T00840007  RH  059%=      5-min Rain = 0
KAM1 060102Z 35007KT 08/01 A3028 RMK A01 T00830007  RH  059%=      5-min Rain = 0
KAM1 060103Z 35008KT 08/01 A3028 RMK A01 T00830007  RH  059%=      5-min Rain = 0
KAM1 060104Z 35008KT 08/01 A3028 RMK A01 T00820007  RH  059%=      5-min Rain = 0
KAM1 060105Z 35007KT 08/01 A3028 RMK A01 T00820007  RH  059%=      5-min Rain = 0
KAM1 060106Z 35007KT 08/01 A3028 RMK A01 T00800006  RH  059%=      5-min Rain = 0
KAM1 060107Z 36008KT 08/01 A3028 RMK A01 T00790006  RH  060%=      5-min Rain = 0
KAM1 060108Z 36008KT 08/01 A3028 RMK A01 T00790006  RH  060%=      5-min Rain = 0
KAM1 060109Z 36007KT 08/01 A3028 RMK A01 T00790007  RH  060%=      5-min Rain = 0
KAM1 060110Z 36007KT 08/01 A3028 RMK A01 T00790006  RH  060%=      5-min Rain = 0
KAM1 060111Z 36007KT 08/01 A3028 RMK A01 T00780005  RH  060%=      5-min Rain = 0
KAM1 060112Z 36007KT 08/01 A3028 RMK A01 T00770005  RH  061%=      5-min Rain = 0
KAM1 060113Z 00007KT 08/00 A3028 RMK A01 T00750004  RH  061%=      5-min Rain = 0
KAM1 060114Z 00007KT 07/00 A3029 RMK A01 T00740004  RH  061%=      5-min Rain = 0
KAM1 060115Z 00007KT 07/01 A3029 RMK A01 T00740005  RH  062%=      5-min Rain = 0
KAM1 060116Z 00007KT 07/00 A3029 RMK A01 T00730004  RH  062%=      5-min Rain = 0
KAM1 060117Z 00007KT 07/00 A3029 RMK A01 T00720004  RH  062%=      5-min Rain = 0
KAM1 060118Z 00007KT 07/01 A3029 RMK A01 T00720005  RH  062%=      5-min Rain = 0
KAM1 060119Z 00007KT 07/00 A3029 RMK A01 T00720004  RH  062%=      5-min Rain = 0
KAM1 060120Z 00007KT 07/00 A3029 RMK A01 T00720004  RH  062%=      5-min Rain = 0
KAM1 060121Z 01007KT 07/00 A3029 RMK A01 T00720004  RH  062%=      5-min Rain = 0
KAM1 060122Z 01006KT 07/00 A3029 RMK A01 T00720004  RH  062%=      5-min Rain = 0
KAM1 060123Z 01006KT 07/00 A3029 RMK A01 T00710004  RH  062%=      5-min Rain = 0
KAM1 060124Z 02007KT 07/00 A3029 RMK A01 T00710003  RH  062%=      5-min Rain = 0
KAM1 060125Z 01007KT 07/00 A3029 RMK A01 T00700004  RH  063%=      5-min Rain = 0
KAM1 060126Z 03007KT 07/00 A3029 RMK A01 T00700004  RH  063%=      5-min Rain = 0
KAM1 060127Z 04006KT 07/00 A3029 RMK A01 T00700002  RH  062%=      5-min Rain = 0
KAM1 060128Z 03005KT 07/00 A3029 RMK A01 T00670000  RH  062%=      5-min Rain = 0
KAM1 060129Z 03006KT 07/00 A3029 RMK A01 T00670001  RH  063%=      5-min Rain = 0
KAM1 060130Z 03006KT 07/00 A3029 RMK A01 T00670000  RH  062%=      5-min Rain = 0
KAM1 060131Z 03006KT 07/M00 A3029 RMK A01 T00671001  RH  062%=      5-min Rain = 0
KAM1 060132Z 04005KT 07/M00 A3029 RMK A01 T00651001  RH  062%=      5-min Rain = 0
KAM1 060133Z 05005KT 06/M00 A3029 RMK A01 T00631003  RH  063%=      5-min Rain = 0
KAM1 060134Z 07005KT 06/M00 A3029 RMK A01 T00621002  RH  063%=      5-min Rain = 0
KAM1 060135Z 08006KT 06/M00 A3029 RMK A01 T00621002  RH  064%=      5-min Rain = 0
KAM1 060136Z 07007KT 06/M00 A3029 RMK A01 T00621003  RH  063%=      5-min Rain = 0
KAM1 060137Z 06007KT 06/M01 A3029 RMK A01 T00601005  RH  063%=      5-min Rain = 0
KAM1 060138Z 05007KT 06/M01 A303 RMK A01 T00581006  RH  063%=      5-min Rain = 0
KAM1 060139Z 05006KT 06/M01 A303 RMK A01 T00581005  RH  064%=      5-min Rain = 0
KAM1 060140Z 06006KT 06/M00 A303 RMK A01 T00591004  RH  064%=      5-min Rain = 0
KAM1 060141Z 05006KT 06/M00 A303 RMK A01 T00611003  RH  063%=      5-min Rain = 0
KAM1 060142Z 05006KT 06/M00 A303 RMK A01 T00631002  RH  063%=      5-min Rain = 0
KAM1 060143Z 05006KT 07/M00 A303 RMK A01 T00651002  RH  062%=      5-min Rain = 0
KAM1 060144Z 05006KT 07/M00 A303 RMK A01 T00681001  RH  062%=      5-min Rain = 0
KAM1 060145Z 04006KT 07/00 A303 RMK A01 T00710000  RH  061%=      5-min Rain = 0
KAM1 060146Z 04006KT 07/00 A303 RMK A01 T00740001  RH  060%=      5-min Rain = 0
KAM1 060147Z 03006KT 08/00 A303 RMK A01 T00760001  RH  059%=      5-min Rain = 0
KAM1 060148Z 03006KT 08/00 A303 RMK A01 T00780000  RH  058%=      5-min Rain = 0
KAM1 060149Z 03006KT 08/00 A303 RMK A01 T007800-0  RH  058%=      5-min Rain = 0
KAM1 060150Z 03006KT 08/M00 A303 RMK A01 T00771002  RH  058%=      5-min Rain = 0
KAM1 060151Z 02005KT 08/M00 A303 RMK A01 T00761002  RH  058%=      5-min Rain = 0
KAM1 060152Z 02005KT 08/M00 A303 RMK A01 T00751003  RH  058%=      5-min Rain = 0
KAM1 060153Z 02005KT 07/M00 A303 RMK A01 T00731004  RH  058%=      5-min Rain = 0
KAM1 060154Z 02005KT 07/M00 A303 RMK A01 T00721004  RH  058%=      5-min Rain = 0
KAM1 060155Z 03005KT 07/M01 A303 RMK A01 T00711005  RH  059%=      5-min Rain = 0
KAM1 060156Z 03005KT 07/M01 A303 RMK A01 T00701005  RH  059%=      5-min Rain = 0
KAM1 060157Z 03004KT 07/M01 A303 RMK A01 T00681006  RH  059%=      5-min Rain = 0
KAM1 060158Z 03004KT 07/M01 A3031 RMK A01 T00661007  RH  060%=      5-min Rain = 0
KAM1 060159Z 03004KT 07/M01 A3031 RMK A01 T00651007  RH  060%=      5-min Rain = 0
KAM1 060200Z 03004KT 06/M01 A3031 RMK A01 T00641008  RH  060%=      5-min Rain = 0
KAM1 060201Z 03004KT 06/M01 A3031 RMK A01 T00621008  RH  061%=      5-min Rain = 0
KAM1 060202Z 03004KT 06/M01 A3031 RMK A01 T00621007  RH  062%=      5-min Rain = 0
KAM1 060203Z 03004KT 06/M01 A3031 RMK A01 T00621006  RH  062%=      5-min Rain = 0
KAM1 060204Z 03004KT 06/M01 A3031 RMK A01 T00631005  RH  062%=      5-min Rain = 0
KAM1 060205Z 03004KT 06/M01 A3031 RMK A01 T00641005  RH  061%=      5-min Rain = 0
KAM1 060206Z 03004KT 06/M01 A3031 RMK A01 T00641005  RH  061%=      5-min Rain = 0
KAM1 060207Z 03004KT 06/M01 A3031 RMK A01 T00641005  RH  061%=      5-min Rain = 0
KAM1 060208Z 04004KT 06/M01 A3031 RMK A01 T00641005  RH  061%=      5-min Rain = 0
KAM1 060209Z 04004KT 06/M01 A3031 RMK A01 T00631005  RH  062%=      5-min Rain = 0
KAM1 060210Z 04004KT 06/M01 A3031 RMK A01 T00631005  RH  062%=      5-min Rain = 0
KAM1 060211Z 04004KT 06/M01 A3031 RMK A01 T00641005  RH  061%=      5-min Rain = 0
KAM1 060212Z 04004KT 06/M01 A3031 RMK A01 T00641005  RH  061%=      5-min Rain = 0
KAM1 060213Z 04004KT 06/M01 A3031 RMK A01 T00641005  RH  061%=      5-min Rain = 0
KAM1 060214Z 04004KT 06/M01 A3031 RMK A01 T00641005  RH  061%=      5-min Rain = 0
KAM1 060215Z 03004KT 06/M01 A3031 RMK A01 T00631006  RH  061%=      5-min Rain = 0
KAM1 060216Z 03004KT 06/M01 A3031 RMK A01 T00621006  RH  062%=      5-min Rain = 0
KAM1 060217Z 04004KT 06/M01 A3031 RMK A01 T00601007  RH  062%=      5-min Rain = 0
KAM1 060218Z 04004KT 06/M01 A3031 RMK A01 T00601006  RH  063%=      5-min Rain = 0
KAM1 060219Z 04004KT 06/M01 A3031 RMK A01 T00591006  RH  063%=      5-min Rain = 0
KAM1 060220Z 04004KT 06/M00 A3031 RMK A01 T00611004  RH  063%=      5-min Rain = 0
KAM1 060221Z 04004KT 06/M00 A3031 RMK A01 T00641002  RH  063%=      5-min Rain = 0
KAM1 060222Z 04004KT 07/M00 A3031 RMK A01 T00661002  RH  062%=      5-min Rain = 0
KAM1 060223Z 05004KT 07/M00 A3031 RMK A01 T00671002  RH  062%=      5-min Rain = 0
KAM1 060224Z 06005KT 07/M00 A3031 RMK A01 T00681002  RH  061%=      5-min Rain = 0
KAM1 060225Z 07005KT 07/M00 A3031 RMK A01 T00681002  RH  061%=      5-min Rain = 0
KAM1 060226Z 07005KT 07/M01 A3031 RMK A01 T00661005  RH  061%=      5-min Rain = 0
KAM1 060227Z 07005KT 06/M01 A3032 RMK A01 T00631008  RH  060%=      5-min Rain = 0
KAM1 060228Z 08005KT 06/M01 A3032 RMK A01 T00591011  RH  061%=      5-min Rain = 0
KAM1 060229Z 09004KT 05/M02 A3032 RMK A01 T00541016  RH  061%=      5-min Rain = 0
KAM1 060230Z 09004KT 05/M02 A3032 RMK A01 T00481022  RH  061%=      5-min Rain = 0
KAM1 060231Z 08004KT 04/M02 A3032 RMK A01 T00421023  RH  063%=      5-min Rain = 0
KAM1 060232Z 08005KT 04/M02 A3032 RMK A01 T00411018  RH  066%=      5-min Rain = 0
KAM1 060233Z 08004KT 04/M02 A3032 RMK A01 T00411017  RH  066%=      5-min Rain = 0
KAM1 060234Z 08004KT 04/M02 A3032 RMK A01 T00411016  RH  067%=      5-min Rain = 0
KAM1 060235Z 08004KT 04/M02 A3032 RMK A01 T00411015  RH  067%=      5-min Rain = 0
KAM1 060236Z 08004KT 04/M02 A3032 RMK A01 T00401015  RH  068%=      5-min Rain = 0
KAM1 060237Z 08004KT 04/M02 A3032 RMK A01 T00401015  RH  067%=      5-min Rain = 0
KAM1 060238Z 08004KT 04/M02 A3032 RMK A01 T00381017  RH  067%=      5-min Rain = 0
KAM1 060239Z 08004KT 04/M02 A3032 RMK A01 T00361018  RH  068%=      5-min Rain = 0
KAM1 060240Z 08004KT 03/M02 A3032 RMK A01 T00341019  RH  068%=      5-min Rain = 0
KAM1 060241Z 08003KT 03/M02 A3032 RMK A01 T00341017  RH  069%=      5-min Rain = 0
KAM1 060242Z 08003KT 03/M02 A3032 RMK A01 T00331017  RH  070%=      5-min Rain = 0
KAM1 060243Z 08003KT 03/M02 A3032 RMK A01 T00331017  RH  070%=      5-min Rain = 0
KAM1 060244Z 08003KT 03/M02 A3032 RMK A01 T00321017  RH  070%=      5-min Rain = 0
KAM1 060245Z 08003KT 03/M02 A3032 RMK A01 T00321016  RH  071%=      5-min Rain = 0
KAM1 060246Z 08002KT 03/M02 A3032 RMK A01 T00321016  RH  071%=      5-min Rain = 0
KAM1 060247Z 08002KT 03/M02 A3032 RMK A01 T00311016  RH  071%=      5-min Rain = 0
KAM1 060248Z 08002KT 03/M02 A3032 RMK A01 T00321016  RH  071%=      5-min Rain = 0
KAM1 060249Z 08002KT 03/M02 A3032 RMK A01 T00311015  RH  071%=      5-min Rain = 0
KAM1 060250Z 08001KT 03/M02 A3032 RMK A01 T00311015  RH  072%=      5-min Rain = 0
KAM1 060251Z 08002KT 03/M01 A3032 RMK A01 T00311014  RH  072%=      5-min Rain = 0
KAM1 060252Z 08002KT 03/M01 A3032 RMK A01 T00321014  RH  072%=      5-min Rain = 0
KAM1 060253Z 08002KT 03/M01 A3032 RMK A01 T00331013  RH  072%=      5-min Rain = 0
KAM1 060254Z 08002KT 03/M01 A3032 RMK A01 T00341013  RH  071%=      5-min Rain = 0
KAM1 060255Z 08001KT 03/M01 A3033 RMK A01 T00341014  RH  071%=      5-min Rain = 0
KAM1 060256Z 08001KT 03/M01 A3032 RMK A01 T00341013  RH  071%=      5-min Rain = 0
KAM1 060257Z 08001KT 03/M01 A3032 RMK A01 T00341013  RH  071%=      5-min Rain = 0
KAM1 060258Z 09001KT 03/M01 A3032 RMK A01 T00341013  RH  071%=      5-min Rain = 0
KAM1 060259Z 09001KT 03/M01 A3033 RMK A01 T00341013  RH  072%=      5-min Rain = 0
KAM1 060300Z 09001KT 03/M01 A3033 RMK A01 T00341012  RH  072%=      5-min Rain = 0
KAM1 060301Z 09000KT 03/M01 A3033 RMK A01 T00341011  RH  072%=      5-min Rain = 0
KAM1 060302Z 09001KT 03/M01 A3033 RMK A01 T00341011  RH  072%=      5-min Rain = 0
KAM1 060303Z 09001KT 04/M01 A3033 RMK A01 T00351010  RH  072%=      5-min Rain = 0
KAM1 060304Z 09001KT 04/M01 A3033 RMK A01 T00351010  RH  072%=      5-min Rain = 0
KAM1 060305Z 09001KT 04/M01 A3033 RMK A01 T00351010  RH  072%=      5-min Rain = 0
KAM1 060306Z 08001KT 04/M01 A3033 RMK A01 T00351010  RH  072%=      5-min Rain = 0
KAM1 060307Z 08001KT 04/M01 A3033 RMK A01 T00361009  RH  073%=      5-min Rain = 0
KAM1 060308Z 08001KT 04/M01 A3033 RMK A01 T00361009  RH  073%=      5-min Rain = 0
KAM1 060309Z 07001KT 04/M01 A3033 RMK A01 T00371008  RH  072%=      5-min Rain = 0
KAM1 060310Z 07001KT 04/M01 A3033 RMK A01 T00381008  RH  072%=      5-min Rain = 0
KAM1 060311Z 07001KT 04/M01 A3033 RMK A01 T00381008  RH  072%=      5-min Rain = 0
KAM1 060312Z 07001KT 04/M01 A3033 RMK A01 T00391008  RH  071%=      5-min Rain = 0
KAM1 060313Z 07002KT 04/M01 A3033 RMK A01 T00391008  RH  071%=      5-min Rain = 0
KAM1 060314Z 07002KT 04/M01 A3033 RMK A01 T00401008  RH  071%=      5-min Rain = 0
KAM1 060315Z 07002KT 04/M01 A3033 RMK A01 T00401008  RH  071%=      5-min Rain = 0
KAM1 060316Z 07002KT 04/M01 A3033 RMK A01 T00411008  RH  071%=      5-min Rain = 0
KAM1 060317Z 06001KT 04/M01 A3033 RMK A01 T00411008  RH  070%=      5-min Rain = 0
KAM1 060318Z 06001KT 04/M01 A3033 RMK A01 T00411008  RH  070%=      5-min Rain = 0
KAM1 060319Z 06001KT 04/M01 A3033 RMK A01 T00411008  RH  070%=      5-min Rain = 0
KAM1 060320Z 06001KT 04/M01 A3033 RMK A01 T00411008  RH  070%=      5-min Rain = 0
KAM1 060321Z 06001KT 04/M01 A3033 RMK A01 T00421008  RH  070%=      5-min Rain = 0
KAM1 060322Z 06001KT 04/M01 A3033 RMK A01 T00421008  RH  070%=      5-min Rain = 0
KAM1 060323Z 06001KT 04/M01 A3033 RMK A01 T00421007  RH  070%=      5-min Rain = 0
KAM1 060324Z 06001KT 04/M01 A3033 RMK A01 T00421007  RH  071%=      5-min Rain = 0
KAM1 060325Z 06002KT 04/M01 A3033 RMK A01 T00421007  RH  070%=      5-min Rain = 0
KAM1 060326Z 06002KT 04/M01 A3033 RMK A01 T00411007  RH  071%=      5-min Rain = 0
KAM1 060327Z 07002KT 04/M01 A3033 RMK A01 T00421007  RH  071%=      5-min Rain = 0
KAM1 060328Z 07002KT 04/M01 A3033 RMK A01 T00411007  RH  071%=      5-min Rain = 0
KAM1 060329Z 07002KT 04/M01 A3033 RMK A01 T00411007  RH  071%=      5-min Rain = 0
KAM1 060330Z 07002KT 04/M01 A3033 RMK A01 T00401007  RH  071%=      5-min Rain = 0
KAM1 060331Z 08002KT 04/M01 A3033 RMK A01 T00401008  RH  071%=      5-min Rain = 0
KAM1 060332Z 08002KT 04/M01 A3033 RMK A01 T00401008  RH  071%=      5-min Rain = 0
KAM1 060333Z 08002KT 04/M01 A3033 RMK A01 T00401008  RH  071%=      5-min Rain = 0
KAM1 060334Z 08002KT 04/M01 A3033 RMK A01 T00391008  RH  071%=      5-min Rain = 0
KAM1 060335Z 09002KT 04/M01 A3033 RMK A01 T00381009  RH  072%=      5-min Rain = 0
KAM1 060336Z 09002KT 04/M01 A3033 RMK A01 T00371009  RH  072%=      5-min Rain = 0
KAM1 060337Z 09002KT 04/M01 A3033 RMK A01 T00361010  RH  072%=      5-min Rain = 0
KAM1 060338Z 09002KT 04/M01 A3033 RMK A01 T00351009  RH  073%=      5-min Rain = 0
KAM1 060339Z 09002KT 03/M01 A3033 RMK A01 T00341009  RH  073%=      5-min Rain = 0
KAM1 060340Z 10002KT 03/M01 A3033 RMK A01 T00341009  RH  073%=      5-min Rain = 0
KAM1 060341Z 10002KT 03/M01 A3034 RMK A01 T00341009  RH  073%=      5-min Rain = 0
KAM1 060342Z 11002KT 03/M01 A3034 RMK A01 T00331010  RH  073%=      5-min Rain = 0
KAM1 060343Z 11002KT 03/M01 A3034 RMK A01 T00321010  RH  074%=      5-min Rain = 0
KAM1 060344Z 12002KT 03/M01 A3034 RMK A01 T00301012  RH  074%=      5-min Rain = 0
KAM1 060345Z 12002KT 03/M01 A3034 RMK A01 T00281014  RH  074%=      5-min Rain = 0
KAM1 060346Z 12001KT 02/M02 A3034 RMK A01 T00231018  RH  074%=      5-min Rain = 0
KAM1 060347Z 13001KT 02/M02 A3034 RMK A01 T00201019  RH  075%=      5-min Rain = 0
KAM1 060348Z 13001KT 02/M02 A3034 RMK A01 T00171018  RH  078%=      5-min Rain = 0
KAM1 060349Z 14001KT 02/M02 A3034 RMK A01 T00161015  RH  080%=      5-min Rain = 0
KAM1 060350Z 15000KT 02/M01 A3034 RMK A01 T00171012  RH  081%=      5-min Rain = 0
KAM1 060351Z 15001KT 02/M01 A3034 RMK A01 T00191010  RH  081%=      5-min Rain = 0
KAM1 060352Z 16001KT 02/M01 A3034 RMK A01 T00201009  RH  081%=      5-min Rain = 0
KAM1 060353Z 16001KT 02/M01 A3034 RMK A01 T00211009  RH  081%=      5-min Rain = 0
KAM1 060354Z 16001KT 02/M01 A3034 RMK A01 T00211008  RH  081%=      5-min Rain = 0
KAM1 060355Z 16001KT 02/M01 A3034 RMK A01 T00231007  RH  081%=      5-min Rain = 0
KAM1 060356Z 16000KT 02/M01 A3034 RMK A01 T00241007  RH  080%=      5-min Rain = 0
KAM1 060357Z 00000KT 03/M01 A3034 RMK A01 T00251006  RH  080%=      5-min Rain = 0
KAM1 060358Z 00000KT 03/M01 A3034 RMK A01 T00261007  RH  079%=      5-min Rain = 0
KAM1 060359Z 00000KT 03/M01 A3034 RMK A01 T00261008  RH  078%=      5-min Rain = 0
KAM1 060400Z 00000KT 03/M01 A3034 RMK A01 T00261007  RH  078%=      5-min Rain = 0
KAM1 060401Z 00000KT 03/M01 A3034 RMK A01 T00271007  RH  079%=      5-min Rain = 0
KAM1 060402Z 00000KT 03/M01 A3034 RMK A01 T00271007  RH  079%=      5-min Rain = 0
KAM1 060403Z 00000KT 03/M01 A3034 RMK A01 T00261007  RH  079%=      5-min Rain = 0
KAM1 060404Z 00000KT 03/M01 A3034 RMK A01 T00251007  RH  079%=      5-min Rain = 0
KAM1 060405Z 00000KT 02/M01 A3034 RMK A01 T00241007  RH  080%=      5-min Rain = 0
KAM1 060406Z 00000KT 02/M01 A3034 RMK A01 T00241006  RH  080%=      5-min Rain = 0
KAM1 060407Z 00000KT 02/M01 A3034 RMK A01 T00241007  RH  080%=      5-min Rain = 0
KAM1 060408Z 00000KT 02/M01 A3034 RMK A01 T00231006  RH  081%=      5-min Rain = 0
KAM1 060409Z 19000KT 02/M01 A3034 RMK A01 T00231006  RH  082%=      5-min Rain = 0
KAM1 060410Z 19001KT 02/M01 A3034 RMK A01 T00231005  RH  082%=      5-min Rain = 0
KAM1 060411Z 19001KT 02/M01 A3034 RMK A01 T00231007  RH  081%=      5-min Rain = 0
KAM1 060412Z 19001KT 02/M01 A3034 RMK A01 T00241009  RH  079%=      5-min Rain = 0
KAM1 060413Z 19001KT 02/M01 A3034 RMK A01 T00231011  RH  079%=      5-min Rain = 0
KAM1 060414Z 19001KT 02/M01 A3034 RMK A01 T00231009  RH  079%=      5-min Rain = 0
KAM1 060415Z 19001KT 02/M01 A3034 RMK A01 T00241008  RH  080%=      5-min Rain = 0
KAM1 060416Z 19001KT 03/M01 A3034 RMK A01 T00251007  RH  079%=      5-min Rain = 0
KAM1 060417Z 18001KT 03/M01 A3034 RMK A01 T00261008  RH  079%=      5-min Rain = 0
KAM1 060418Z 18001KT 03/M01 A3034 RMK A01 T00261008  RH  078%=      5-min Rain = 0
KAM1 060419Z 18001KT 03/M01 A3034 RMK A01 T00271005  RH  080%=      5-min Rain = 0
KAM1 060420Z 17001KT 03/M00 A3034 RMK A01 T00261004  RH  081%=      5-min Rain = 0
KAM1 060421Z 17001KT 03/M01 A3034 RMK A01 T00251005  RH  081%=      5-min Rain = 0
KAM1 060422Z 17002KT 02/M01 A3035 RMK A01 T00241007  RH  080%=      5-min Rain = 0
KAM1 060423Z 17002KT 02/M01 A3035 RMK A01 T00241007  RH  080%=      5-min Rain = 0
KAM1 060424Z 17002KT 02/M01 A3034 RMK A01 T00241008  RH  079%=      5-min Rain = 0
KAM1 060425Z 17002KT 02/M01 A3034 RMK A01 T00241005  RH  081%=      5-min Rain = 0
KAM1 060426Z 16002KT 02/M00 A3034 RMK A01 T00241003  RH  083%=      5-min Rain = 0
KAM1 060427Z 16003KT 02/M01 A3035 RMK A01 T00241006  RH  081%=      5-min Rain = 0
KAM1 060428Z 15003KT 02/M01 A3035 RMK A01 T00221009  RH  080%=      5-min Rain = 0
KAM1 060429Z 15003KT 02/M01 A3035 RMK A01 T00221009  RH  080%=      5-min Rain = 0
KAM1 060430Z 15002KT 02/M01 A3035 RMK A01 T00221008  RH  081%=      5-min Rain = 0
KAM1 060431Z 16002KT 02/M01 A3035 RMK A01 T00221008  RH  081%=      5-min Rain = 0
KAM1 060432Z 15002KT 02/M01 A3035 RMK A01 T00221007  RH  081%=      5-min Rain = 0
KAM1 060433Z 15002KT 02/M01 A3035 RMK A01 T00221006  RH  082%=      5-min Rain = 0
KAM1 060434Z 15002KT 02/M01 A3034 RMK A01 T00221008  RH  081%=      5-min Rain = 0
KAM1 060435Z 15002KT 02/M01 A3034 RMK A01 T00221007  RH  081%=      5-min Rain = 0
KAM1 060436Z 15002KT 02/M01 A3034 RMK A01 T00221007  RH  081%=      5-min Rain = 0
KAM1 060437Z 16002KT 02/M01 A3034 RMK A01 T00221007  RH  081%=      5-min Rain = 0
KAM1 060438Z 16002KT 02/M01 A3034 RMK A01 T00211006  RH  082%=      5-min Rain = 0
KAM1 060439Z 16002KT 02/M01 A3034 RMK A01 T00211006  RH  082%=      5-min Rain = 0
KAM1 060440Z 16002KT 02/M00 A3034 RMK A01 T00211004  RH  084%=      5-min Rain = 0
KAM1 060441Z 16002KT 02/M00 A3034 RMK A01 T00221004  RH  083%=      5-min Rain = 0
KAM1 060442Z 16002KT 02/M01 A3034 RMK A01 T00231005  RH  082%=      5-min Rain = 0
KAM1 060443Z 16002KT 02/M01 A3034 RMK A01 T00231005  RH  082%=      5-min Rain = 0
KAM1 060444Z 16002KT 02/M01 A3035 RMK A01 T00221005  RH  082%=      5-min Rain = 0
KAM1 060445Z 16002KT 02/M01 A3035 RMK A01 T00211005  RH  083%=      5-min Rain = 0
KAM1 060446Z 16001KT 02/M01 A3035 RMK A01 T00201008  RH  081%=      5-min Rain = 0
KAM1 060447Z 16001KT 02/M01 A3035 RMK A01 T00181008  RH  083%=      5-min Rain = 0
KAM1 060448Z 16002KT 02/M01 A3035 RMK A01 T00181006  RH  084%=      5-min Rain = 0
KAM1 060449Z 16002KT 02/M01 A3035 RMK A01 T00171006  RH  084%=      5-min Rain = 0
KAM1 060450Z 16002KT 02/M01 A3035 RMK A01 T00181006  RH  085%=      5-min Rain = 0
KAM1 060451Z 16002KT 02/M00 A3035 RMK A01 T00181002  RH  086%=      5-min Rain = 0
KAM1 060452Z 15002KT 02/00 A3035 RMK A01 T00200002  RH  088%=      5-min Rain = 0
KAM1 060453Z 15002KT 02/01 A3035 RMK A01 T00220006  RH  089%=      5-min Rain = 0
KAM1 060454Z 15002KT 02/01 A3035 RMK A01 T00230005  RH  088%=      5-min Rain = 0
KAM1 060455Z 15002KT 02/00 A3035 RMK A01 T00230002  RH  086%=      5-min Rain = 0
KAM1 060456Z 15002KT 02/M00 A3035 RMK A01 T00231001  RH  084%=      5-min Rain = 0
KAM1 060457Z 15002KT 02/00 A3035 RMK A01 T00230002  RH  086%=      5-min Rain = 0
KAM1 060458Z 16002KT 02/00 A3035 RMK A01 T00230004  RH  087%=      5-min Rain = 0
KAM1 060459Z 16002KT 02/00 A3035 RMK A01 T00240003  RH  086%=      5-min Rain = 0
KAM1 060500Z 16002KT 02/00 A3035 RMK A01 T00240002  RH  085%=      5-min Rain = 0
KAM1 060501Z 16002KT 02/00 A3035 RMK A01 T00240001  RH  085%=      5-min Rain = 0
KAM1 060502Z 16002KT 02/00 A3035 RMK A01 T00230001  RH  085%=      5-min Rain = 0
KAM1 060503Z 16002KT 02/M00 A3035 RMK A01 T00211001  RH  086%=      5-min Rain = 0
KAM1 060504Z 16001KT 02/00 A3035 RMK A01 T00200001  RH  087%=      5-min Rain = 0
KAM1 060505Z 17001KT 02/00 A3035 RMK A01 T00200004  RH  089%=      5-min Rain = 0
KAM1 060506Z 17001KT 02/01 A3035 RMK A01 T00210005  RH  089%=      5-min Rain = 0
KAM1 060507Z 17001KT 02/00 A3035 RMK A01 T00210004  RH  088%=      5-min Rain = 0
KAM1 060508Z 17001KT 02/00 A3035 RMK A01 T00210003  RH  088%=      5-min Rain = 0
KAM1 060509Z 17001KT 02/00 A3035 RMK A01 T00210004  RH  088%=      5-min Rain = 0
KAM1 060510Z 17001KT 02/01 A3035 RMK A01 T00210005  RH  089%=      5-min Rain = 0
KAM1 060511Z 17001KT 02/01 A3035 RMK A01 T00220008  RH  091%=      5-min Rain = 0
KAM1 060512Z 18001KT 02/01 A3035 RMK A01 T00220011  RH  092%=      5-min Rain = 0
KAM1 060513Z 18001KT 02/01 A3035 RMK A01 T00220012  RH  093%=      5-min Rain = 0
KAM1 060514Z 18001KT 02/01 A3035 RMK A01 T00220012  RH  093%=      5-min Rain = 0
KAM1 060515Z 18002KT 02/01 A3035 RMK A01 T00220011  RH  092%=      5-min Rain = 0
KAM1 060516Z 18002KT 02/01 A3035 RMK A01 T00210008  RH  091%=      5-min Rain = 0
KAM1 060517Z 19002KT 02/01 A3035 RMK A01 T00200006  RH  091%=      5-min Rain = 0
KAM1 060518Z 19002KT 02/01 A3035 RMK A01 T00180005  RH  091%=      5-min Rain = 0
KAM1 060519Z 19002KT 02/00 A3035 RMK A01 T00160003  RH  091%=      5-min Rain = 0
KAM1 060520Z 19001KT 01/00 A3035 RMK A01 T00140002  RH  091%=      5-min Rain = 0
KAM1 060521Z 19001KT 01/00 A3035 RMK A01 T00130002  RH  093%=      5-min Rain = 0
KAM1 060522Z 20001KT 01/00 A3035 RMK A01 T00120003  RH  094%=      5-min Rain = 0
KAM1 060523Z 21001KT 01/00 A3035 RMK A01 T00120004  RH  094%=      5-min Rain = 0
KAM1 060524Z 23002KT 01/01 A3035 RMK A01 T00110005  RH  096%=      5-min Rain = 0
KAM1 060525Z 24002KT 01/01 A3035 RMK A01 T00110005  RH  096%=      5-min Rain = 0
KAM1 060526Z 24002KT 01/01 A3035 RMK A01 T00090005  RH  097%=      5-min Rain = 0
KAM1 060527Z 24002KT 01/01 A3035 RMK A01 T00090006  RH  098%=      5-min Rain = 0
KAM1 060528Z 24002KT 01/01 A3035 RMK A01 T00090009  RH  100%=      5-min Rain = 0
KAM1 060529Z 24002KT 01/01 A3035 RMK A01 T00100009  RH  100%=      5-min Rain = 0
KAM1 060530Z 24002KT 01/01 A3035 RMK A01 T00110011  RH  100%=      5-min Rain = 0
KAM1 060531Z 24002KT 01/01 A3035 RMK A01 T00120011  RH  100%=      5-min Rain = 0
KAM1 060532Z 24002KT 01/01 A3034 RMK A01 T00120011  RH  100%=      5-min Rain = 0
KAM1 060533Z 24002KT 01/01 A3034 RMK A01 T00120011  RH  099%=      5-min Rain = 0
KAM1 060534Z 25002KT 01/01 A3034 RMK A01 T00120011  RH  099%=      5-min Rain = 0
KAM1 060535Z 25002KT 01/01 A3034 RMK A01 T00120011  RH  099%=      5-min Rain = 0
KAM1 060536Z 26002KT 01/01 A3034 RMK A01 T00120010  RH  099%=      5-min Rain = 0
KAM1 060537Z 26002KT 01/01 A3034 RMK A01 T00130008  RH  097%=      5-min Rain = 0
KAM1 060538Z 26002KT 01/01 A3034 RMK A01 T00130006  RH  096%=      5-min Rain = 0
KAM1 060539Z 25002KT 01/01 A3034 RMK A01 T00130006  RH  095%=      5-min Rain = 0
KAM1 060540Z 25002KT 01/01 A3034 RMK A01 T00130006  RH  095%=      5-min Rain = 0
KAM1 060541Z 26002KT 01/01 A3034 RMK A01 T00130005  RH  095%=      5-min Rain = 0
KAM1 060542Z 26002KT 01/00 A3034 RMK A01 T00130004  RH  094%=      5-min Rain = 0
KAM1 060543Z 26002KT 01/00 A3034 RMK A01 T00130001  RH  092%=      5-min Rain = 0
KAM1 060544Z 26002KT 01/M00 A3034 RMK A01 T00111001  RH  091%=      5-min Rain = 0
KAM1 060545Z 26003KT 01/M01 A3034 RMK A01 T00091005  RH  090%=      5-min Rain = 0
KAM1 060546Z 26002KT 01/M01 A3035 RMK A01 T00061007  RH  091%=      5-min Rain = 0
KAM1 060547Z 26002KT 00/M01 A3035 RMK A01 T00041009  RH  091%=      5-min Rain = 0
KAM1 060548Z 26002KT 00/M01 A3034 RMK A01 T00031008  RH  093%=      5-min Rain = 0
KAM1 060549Z 26002KT 00/M01 A3034 RMK A01 T00031007  RH  093%=      5-min Rain = 0
KAM1 060550Z 25002KT 00/M01 A3034 RMK A01 T00041005  RH  094%=      5-min Rain = 0
KAM1 060551Z 25002KT 01/M00 A3034 RMK A01 T00061004  RH  093%=      5-min Rain = 0
KAM1 060552Z 24003KT 01/M00 A3034 RMK A01 T00071004  RH  093%=      5-min Rain = 0
KAM1 060553Z 24003KT 01/M00 A3034 RMK A01 T00081003  RH  093%=      5-min Rain = 0
KAM1 060554Z 25003KT 01/M00 A3034 RMK A01 T00091001  RH  093%=      5-min Rain = 0
KAM1 060555Z 25003KT 01/M00 A3034 RMK A01 T00101003  RH  092%=      5-min Rain = 0
KAM1 060556Z 25003KT 01/M00 A3034 RMK A01 T00101004  RH  091%=      5-min Rain = 0
KAM1 060557Z 25003KT 01/M00 A3034 RMK A01 T00101002  RH  091%=      5-min Rain = 0
KAM1 060558Z 25004KT 01/M00 A3034 RMK A01 T00111001  RH  092%=      5-min Rain = 0
KAM1 060559Z 26004KT 01/M00 A3034 RMK A01 T00111003  RH  090%=      5-min Rain = 0

Page generated in 0.069 seconds.